<?xml version="1.0" encoding="UTF-8" standalone="no" ?>
<gpx xmlns="http://www.topografix.com/GPX/1/1" xmlns:xsi="http://www.w3.org/2001/XMLSchema-instance" xsi:schemaLocation="http://www.topografix.com/GPX/1/1 http://www.topografix.com/GPX/1/1/gpx.xsd" version="1.1" creator="VisuGPX - https://www.visugpx.com">
  <metadata>
    <name>Marche Besancon ville</name>
    <desc><![CDATA[Marche à Besançon centre ville, mauvais temps, froid]]></desc>
  </metadata>
  <trk>
    <name><![CDATA[2018-02-07 09-54]]></name>
    <trkseg>
      <trkpt lat="47.25262" lon="6.01468">
        <ele>354.6</ele>
        <time>2018-02-07T07:54:37Z</time>
      </trkpt>
      <trkpt lat="47.25263" lon="6.01474">
        <ele>353.6</ele>
        <time>2018-02-07T07:54:42Z</time>
      </trkpt>
      <trkpt lat="47.25264" lon="6.01476">
        <ele>352.3</ele>
        <time>2018-02-07T07:54:47Z</time>
      </trkpt>
      <trkpt lat="47.25265" lon="6.01484">
        <ele>350</ele>
        <time>2018-02-07T07:54:52Z</time>
      </trkpt>
      <trkpt lat="47.25266" lon="6.0149">
        <ele>347.5</ele>
        <time>2018-02-07T07:54:57Z</time>
      </trkpt>
      <trkpt lat="47.25267" lon="6.01497">
        <ele>345.1</ele>
        <time>2018-02-07T07:55:02Z</time>
      </trkpt>
      <trkpt lat="47.25268" lon="6.01502">
        <ele>343.3</ele>
        <time>2018-02-07T07:55:07Z</time>
      </trkpt>
      <trkpt lat="47.25268" lon="6.01504">
        <ele>341.9</ele>
        <time>2018-02-07T07:55:12Z</time>
      </trkpt>
      <trkpt lat="47.25267" lon="6.01507">
        <ele>340.7</ele>
        <time>2018-02-07T07:55:17Z</time>
      </trkpt>
      <trkpt lat="47.25269" lon="6.01508">
        <ele>339.4</ele>
        <time>2018-02-07T07:55:22Z</time>
      </trkpt>
      <trkpt lat="47.25271" lon="6.0151">
        <ele>339.6</ele>
        <time>2018-02-07T07:55:27Z</time>
      </trkpt>
      <trkpt lat="47.25273" lon="6.01511">
        <ele>340.4</ele>
        <time>2018-02-07T07:55:32Z</time>
      </trkpt>
      <trkpt lat="47.25274" lon="6.01514">
        <ele>340.7</ele>
        <time>2018-02-07T07:55:37Z</time>
      </trkpt>
      <trkpt lat="47.25274" lon="6.01514">
        <ele>340.7</ele>
        <time>2018-02-07T07:55:42Z</time>
      </trkpt>
      <trkpt lat="47.25274" lon="6.01514">
        <ele>340.7</ele>
        <time>2018-02-07T07:55:47Z</time>
      </trkpt>
      <trkpt lat="47.25275" lon="6.01514">
        <ele>340</ele>
        <time>2018-02-07T07:55:52Z</time>
      </trkpt>
      <trkpt lat="47.25274" lon="6.01514">
        <ele>340.7</ele>
        <time>2018-02-07T07:55:57Z</time>
      </trkpt>
      <trkpt lat="47.25274" lon="6.01514">
        <ele>340.7</ele>
        <time>2018-02-07T07:56:02Z</time>
      </trkpt>
      <trkpt lat="47.25275" lon="6.01513">
        <ele>341.3</ele>
        <time>2018-02-07T07:56:07Z</time>
      </trkpt>
      <trkpt lat="47.25275" lon="6.01513">
        <ele>341.3</ele>
        <time>2018-02-07T07:56:12Z</time>
      </trkpt>
      <trkpt lat="47.25275" lon="6.01513">
        <ele>341.3</ele>
        <time>2018-02-07T07:56:17Z</time>
      </trkpt>
      <trkpt lat="47.25274" lon="6.01513">
        <ele>340.6</ele>
        <time>2018-02-07T07:56:22Z</time>
      </trkpt>
      <trkpt lat="47.25275" lon="6.01513">
        <ele>341.3</ele>
        <time>2018-02-07T07:56:27Z</time>
      </trkpt>
      <trkpt lat="47.25275" lon="6.01511">
        <ele>341.2</ele>
        <time>2018-02-07T07:56:32Z</time>
      </trkpt>
      <trkpt lat="47.25275" lon="6.01513">
        <ele>341.3</ele>
        <time>2018-02-07T07:56:37Z</time>
      </trkpt>
      <trkpt lat="47.25275" lon="6.01513">
        <ele>341.3</ele>
        <time>2018-02-07T07:56:42Z</time>
      </trkpt>
      <trkpt lat="47.25275" lon="6.01513">
        <ele>341.3</ele>
        <time>2018-02-07T07:56:47Z</time>
      </trkpt>
      <trkpt lat="47.25275" lon="6.01511">
        <ele>341.2</ele>
        <time>2018-02-07T07:56:52Z</time>
      </trkpt>
      <trkpt lat="47.25275" lon="6.01511">
        <ele>341.2</ele>
        <time>2018-02-07T07:56:57Z</time>
      </trkpt>
      <trkpt lat="47.25275" lon="6.01513">
        <ele>341.3</ele>
        <time>2018-02-07T07:57:02Z</time>
      </trkpt>
      <trkpt lat="47.25272" lon="6.01513">
        <ele>340.5</ele>
        <time>2018-02-07T07:57:07Z</time>
      </trkpt>
      <trkpt lat="47.2527" lon="6.01512">
        <ele>340.4</ele>
        <time>2018-02-07T07:57:12Z</time>
      </trkpt>
      <trkpt lat="47.25266" lon="6.01513">
        <ele>341</ele>
        <time>2018-02-07T07:57:17Z</time>
      </trkpt>
      <trkpt lat="47.25263" lon="6.01513">
        <ele>340.9</ele>
        <time>2018-02-07T07:57:22Z</time>
      </trkpt>
      <trkpt lat="47.25263" lon="6.01513">
        <ele>341.5</ele>
        <time>2018-02-07T07:57:27Z</time>
      </trkpt>
      <trkpt lat="47.25262" lon="6.01513">
        <ele>340.8</ele>
        <time>2018-02-07T07:57:32Z</time>
      </trkpt>
      <trkpt lat="47.25262" lon="6.01513">
        <ele>340.8</ele>
        <time>2018-02-07T07:57:37Z</time>
      </trkpt>
      <trkpt lat="47.25261" lon="6.01514">
        <ele>340.1</ele>
        <time>2018-02-07T07:57:42Z</time>
      </trkpt>
      <trkpt lat="47.25261" lon="6.01514">
        <ele>340.1</ele>
        <time>2018-02-07T07:57:47Z</time>
      </trkpt>
      <trkpt lat="47.25261" lon="6.01514">
        <ele>340.1</ele>
        <time>2018-02-07T07:57:52Z</time>
      </trkpt>
      <trkpt lat="47.25261" lon="6.01513">
        <ele>339.3</ele>
        <time>2018-02-07T07:57:57Z</time>
      </trkpt>
      <trkpt lat="47.25261" lon="6.01513">
        <ele>339.3</ele>
        <time>2018-02-07T07:58:02Z</time>
      </trkpt>
      <trkpt lat="47.25258" lon="6.01513">
        <ele>337.8</ele>
        <time>2018-02-07T07:58:07Z</time>
      </trkpt>
      <trkpt lat="47.25257" lon="6.01511">
        <ele>336.3</ele>
        <time>2018-02-07T07:58:12Z</time>
      </trkpt>
      <trkpt lat="47.25257" lon="6.01511">
        <ele>335.5</ele>
        <time>2018-02-07T07:58:17Z</time>
      </trkpt>
      <trkpt lat="47.25257" lon="6.01511">
        <ele>335.5</ele>
        <time>2018-02-07T07:58:22Z</time>
      </trkpt>
      <trkpt lat="47.25256" lon="6.01511">
        <ele>334.8</ele>
        <time>2018-02-07T07:58:27Z</time>
      </trkpt>
      <trkpt lat="47.25254" lon="6.0151">
        <ele>331.8</ele>
        <time>2018-02-07T07:58:32Z</time>
      </trkpt>
      <trkpt lat="47.25254" lon="6.0151">
        <ele>331.8</ele>
        <time>2018-02-07T07:58:37Z</time>
      </trkpt>
      <trkpt lat="47.25253" lon="6.0151">
        <ele>331</ele>
        <time>2018-02-07T07:58:42Z</time>
      </trkpt>
      <trkpt lat="47.25251" lon="6.01511">
        <ele>328.9</ele>
        <time>2018-02-07T07:58:47Z</time>
      </trkpt>
      <trkpt lat="47.2525" lon="6.01511">
        <ele>328.2</ele>
        <time>2018-02-07T07:58:52Z</time>
      </trkpt>
      <trkpt lat="47.2525" lon="6.01511">
        <ele>328.2</ele>
        <time>2018-02-07T07:58:57Z</time>
      </trkpt>
      <trkpt lat="47.25251" lon="6.01511">
        <ele>327.5</ele>
        <time>2018-02-07T07:59:02Z</time>
      </trkpt>
      <trkpt lat="47.2525" lon="6.01511">
        <ele>326.8</ele>
        <time>2018-02-07T07:59:07Z</time>
      </trkpt>
      <trkpt lat="47.25251" lon="6.0151">
        <ele>326.7</ele>
        <time>2018-02-07T07:59:12Z</time>
      </trkpt>
      <trkpt lat="47.25251" lon="6.0151">
        <ele>326.7</ele>
        <time>2018-02-07T07:59:17Z</time>
      </trkpt>
      <trkpt lat="47.25251" lon="6.0151">
        <ele>326.7</ele>
        <time>2018-02-07T07:59:22Z</time>
      </trkpt>
      <trkpt lat="47.25251" lon="6.0151">
        <ele>326.7</ele>
        <time>2018-02-07T07:59:27Z</time>
      </trkpt>
      <trkpt lat="47.25251" lon="6.0151">
        <ele>326.7</ele>
        <time>2018-02-07T07:59:32Z</time>
      </trkpt>
      <trkpt lat="47.25251" lon="6.0151">
        <ele>326.7</ele>
        <time>2018-02-07T07:59:37Z</time>
      </trkpt>
      <trkpt lat="47.25251" lon="6.0151">
        <ele>326.7</ele>
        <time>2018-02-07T07:59:42Z</time>
      </trkpt>
      <trkpt lat="47.25251" lon="6.0151">
        <ele>326.7</ele>
        <time>2018-02-07T07:59:47Z</time>
      </trkpt>
      <trkpt lat="47.25251" lon="6.0151">
        <ele>326.7</ele>
        <time>2018-02-07T07:59:52Z</time>
      </trkpt>
      <trkpt lat="47.25251" lon="6.0151">
        <ele>326.7</ele>
        <time>2018-02-07T07:59:57Z</time>
      </trkpt>
      <trkpt lat="47.25251" lon="6.0151">
        <ele>326.7</ele>
        <time>2018-02-07T08:00:02Z</time>
      </trkpt>
      <trkpt lat="47.25251" lon="6.0151">
        <ele>326.7</ele>
        <time>2018-02-07T08:00:07Z</time>
      </trkpt>
      <trkpt lat="47.25251" lon="6.0151">
        <ele>326.7</ele>
        <time>2018-02-07T08:00:12Z</time>
      </trkpt>
      <trkpt lat="47.25251" lon="6.0151">
        <ele>326.7</ele>
        <time>2018-02-07T08:00:17Z</time>
      </trkpt>
      <trkpt lat="47.25251" lon="6.0151">
        <ele>326.7</ele>
        <time>2018-02-07T08:00:22Z</time>
      </trkpt>
      <trkpt lat="47.25251" lon="6.0151">
        <ele>326.7</ele>
        <time>2018-02-07T08:00:27Z</time>
      </trkpt>
      <trkpt lat="47.2525" lon="6.0151">
        <ele>324.6</ele>
        <time>2018-02-07T08:00:32Z</time>
      </trkpt>
      <trkpt lat="47.25249" lon="6.0151">
        <ele>323.8</ele>
        <time>2018-02-07T08:00:37Z</time>
      </trkpt>
      <trkpt lat="47.25249" lon="6.0151">
        <ele>323.8</ele>
        <time>2018-02-07T08:00:42Z</time>
      </trkpt>
      <trkpt lat="47.2525" lon="6.0151">
        <ele>323.1</ele>
        <time>2018-02-07T08:00:47Z</time>
      </trkpt>
      <trkpt lat="47.25249" lon="6.0151">
        <ele>321.7</ele>
        <time>2018-02-07T08:00:52Z</time>
      </trkpt>
      <trkpt lat="47.25249" lon="6.0151">
        <ele>321.7</ele>
        <time>2018-02-07T08:00:57Z</time>
      </trkpt>
      <trkpt lat="47.25248" lon="6.0151">
        <ele>320.2</ele>
        <time>2018-02-07T08:01:02Z</time>
      </trkpt>
      <trkpt lat="47.25247" lon="6.0151">
        <ele>319.5</ele>
        <time>2018-02-07T08:01:07Z</time>
      </trkpt>
      <trkpt lat="47.25248" lon="6.0151">
        <ele>318.8</ele>
        <time>2018-02-07T08:01:12Z</time>
      </trkpt>
      <trkpt lat="47.25248" lon="6.0151">
        <ele>318.8</ele>
        <time>2018-02-07T08:01:17Z</time>
      </trkpt>
      <trkpt lat="47.25248" lon="6.0151">
        <ele>318.8</ele>
        <time>2018-02-07T08:01:22Z</time>
      </trkpt>
      <trkpt lat="47.25247" lon="6.0151">
        <ele>318.1</ele>
        <time>2018-02-07T08:01:27Z</time>
      </trkpt>
      <trkpt lat="47.25247" lon="6.0151">
        <ele>318.1</ele>
        <time>2018-02-07T08:01:32Z</time>
      </trkpt>
      <trkpt lat="47.25247" lon="6.0151">
        <ele>318.1</ele>
        <time>2018-02-07T08:01:37Z</time>
      </trkpt>
      <trkpt lat="47.25247" lon="6.0151">
        <ele>318.1</ele>
        <time>2018-02-07T08:01:42Z</time>
      </trkpt>
      <trkpt lat="47.25246" lon="6.0151">
        <ele>317.3</ele>
        <time>2018-02-07T08:01:47Z</time>
      </trkpt>
      <trkpt lat="47.25246" lon="6.0151">
        <ele>317.3</ele>
        <time>2018-02-07T08:01:52Z</time>
      </trkpt>
      <trkpt lat="47.25246" lon="6.0151">
        <ele>317.3</ele>
        <time>2018-02-07T08:01:57Z</time>
      </trkpt>
      <trkpt lat="47.25246" lon="6.0151">
        <ele>317.3</ele>
        <time>2018-02-07T08:02:02Z</time>
      </trkpt>
      <trkpt lat="47.25246" lon="6.01512">
        <ele>316.7</ele>
        <time>2018-02-07T08:02:07Z</time>
      </trkpt>
      <trkpt lat="47.25245" lon="6.01512">
        <ele>315.9</ele>
        <time>2018-02-07T08:02:12Z</time>
      </trkpt>
      <trkpt lat="47.25245" lon="6.01512">
        <ele>315.9</ele>
        <time>2018-02-07T08:02:17Z</time>
      </trkpt>
      <trkpt lat="47.25245" lon="6.01512">
        <ele>315.9</ele>
        <time>2018-02-07T08:02:22Z</time>
      </trkpt>
      <trkpt lat="47.25245" lon="6.01512">
        <ele>315.9</ele>
        <time>2018-02-07T08:02:27Z</time>
      </trkpt>
      <trkpt lat="47.25245" lon="6.01512">
        <ele>315.9</ele>
        <time>2018-02-07T08:02:32Z</time>
      </trkpt>
      <trkpt lat="47.25246" lon="6.01513">
        <ele>316.1</ele>
        <time>2018-02-07T08:02:37Z</time>
      </trkpt>
      <trkpt lat="47.25246" lon="6.01513">
        <ele>316.1</ele>
        <time>2018-02-07T08:02:42Z</time>
      </trkpt>
      <trkpt lat="47.25246" lon="6.01513">
        <ele>316.1</ele>
        <time>2018-02-07T08:02:47Z</time>
      </trkpt>
      <trkpt lat="47.25246" lon="6.01512">
        <ele>316</ele>
        <time>2018-02-07T08:02:52Z</time>
      </trkpt>
      <trkpt lat="47.25246" lon="6.01512">
        <ele>316</ele>
        <time>2018-02-07T08:02:57Z</time>
      </trkpt>
      <trkpt lat="47.25246" lon="6.01512">
        <ele>316</ele>
        <time>2018-02-07T08:03:02Z</time>
      </trkpt>
      <trkpt lat="47.25246" lon="6.01512">
        <ele>314.6</ele>
        <time>2018-02-07T08:03:07Z</time>
      </trkpt>
      <trkpt lat="47.25245" lon="6.01512">
        <ele>314.5</ele>
        <time>2018-02-07T08:03:12Z</time>
      </trkpt>
      <trkpt lat="47.25243" lon="6.0151">
        <ele>314.3</ele>
        <time>2018-02-07T08:03:17Z</time>
      </trkpt>
      <trkpt lat="47.25239" lon="6.01509">
        <ele>314.1</ele>
        <time>2018-02-07T08:03:22Z</time>
      </trkpt>
      <trkpt lat="47.25235" lon="6.01506">
        <ele>313.8</ele>
        <time>2018-02-07T08:03:27Z</time>
      </trkpt>
      <trkpt lat="47.25231" lon="6.01501">
        <ele>311.9</ele>
        <time>2018-02-07T08:03:32Z</time>
      </trkpt>
      <trkpt lat="47.25224" lon="6.01501">
        <ele>311.6</ele>
        <time>2018-02-07T08:03:37Z</time>
      </trkpt>
      <trkpt lat="47.25219" lon="6.01504">
        <ele>312.3</ele>
        <time>2018-02-07T08:03:42Z</time>
      </trkpt>
      <trkpt lat="47.25215" lon="6.01509">
        <ele>311</ele>
        <time>2018-02-07T08:03:47Z</time>
      </trkpt>
      <trkpt lat="47.25211" lon="6.01512">
        <ele>311.7</ele>
        <time>2018-02-07T08:03:52Z</time>
      </trkpt>
      <trkpt lat="47.25206" lon="6.01512">
        <ele>311.5</ele>
        <time>2018-02-07T08:03:57Z</time>
      </trkpt>
      <trkpt lat="47.25201" lon="6.01514">
        <ele>312.1</ele>
        <time>2018-02-07T08:04:02Z</time>
      </trkpt>
      <trkpt lat="47.25195" lon="6.01514">
        <ele>312.6</ele>
        <time>2018-02-07T08:04:07Z</time>
      </trkpt>
      <trkpt lat="47.2519" lon="6.01515">
        <ele>313.1</ele>
        <time>2018-02-07T08:04:12Z</time>
      </trkpt>
      <trkpt lat="47.25183" lon="6.01517">
        <ele>314.4</ele>
        <time>2018-02-07T08:04:17Z</time>
      </trkpt>
      <trkpt lat="47.25178" lon="6.01519">
        <ele>315.7</ele>
        <time>2018-02-07T08:04:22Z</time>
      </trkpt>
      <trkpt lat="47.25172" lon="6.01521">
        <ele>316.3</ele>
        <time>2018-02-07T08:04:27Z</time>
      </trkpt>
      <trkpt lat="47.25166" lon="6.01523">
        <ele>316.9</ele>
        <time>2018-02-07T08:04:32Z</time>
      </trkpt>
      <trkpt lat="47.25159" lon="6.01524">
        <ele>319.5</ele>
        <time>2018-02-07T08:04:37Z</time>
      </trkpt>
      <trkpt lat="47.25155" lon="6.01525">
        <ele>318.7</ele>
        <time>2018-02-07T08:04:42Z</time>
      </trkpt>
      <trkpt lat="47.25149" lon="6.01527">
        <ele>319.3</ele>
        <time>2018-02-07T08:04:47Z</time>
      </trkpt>
      <trkpt lat="47.25144" lon="6.01528">
        <ele>319.1</ele>
        <time>2018-02-07T08:04:52Z</time>
      </trkpt>
      <trkpt lat="47.25139" lon="6.0153">
        <ele>319</ele>
        <time>2018-02-07T08:04:57Z</time>
      </trkpt>
      <trkpt lat="47.25133" lon="6.01531">
        <ele>319.5</ele>
        <time>2018-02-07T08:05:02Z</time>
      </trkpt>
      <trkpt lat="47.25128" lon="6.01533">
        <ele>319.4</ele>
        <time>2018-02-07T08:05:07Z</time>
      </trkpt>
      <trkpt lat="47.25122" lon="6.01535">
        <ele>318.6</ele>
        <time>2018-02-07T08:05:12Z</time>
      </trkpt>
      <trkpt lat="47.25117" lon="6.01537">
        <ele>318.5</ele>
        <time>2018-02-07T08:05:17Z</time>
      </trkpt>
      <trkpt lat="47.25111" lon="6.01538">
        <ele>317.6</ele>
        <time>2018-02-07T08:05:22Z</time>
      </trkpt>
      <trkpt lat="47.25105" lon="6.0154">
        <ele>318.2</ele>
        <time>2018-02-07T08:05:27Z</time>
      </trkpt>
      <trkpt lat="47.25099" lon="6.01541">
        <ele>318.8</ele>
        <time>2018-02-07T08:05:32Z</time>
      </trkpt>
      <trkpt lat="47.25094" lon="6.01544">
        <ele>318.7</ele>
        <time>2018-02-07T08:05:37Z</time>
      </trkpt>
      <trkpt lat="47.25088" lon="6.01544">
        <ele>319.2</ele>
        <time>2018-02-07T08:05:42Z</time>
      </trkpt>
      <trkpt lat="47.25082" lon="6.01546">
        <ele>320.4</ele>
        <time>2018-02-07T08:05:47Z</time>
      </trkpt>
      <trkpt lat="47.25077" lon="6.01548">
        <ele>320.3</ele>
        <time>2018-02-07T08:05:52Z</time>
      </trkpt>
      <trkpt lat="47.25071" lon="6.01549">
        <ele>320.2</ele>
        <time>2018-02-07T08:05:57Z</time>
      </trkpt>
      <trkpt lat="47.25069" lon="6.01547">
        <ele>320</ele>
        <time>2018-02-07T08:06:02Z</time>
      </trkpt>
      <trkpt lat="47.25066" lon="6.01547">
        <ele>319.9</ele>
        <time>2018-02-07T08:06:07Z</time>
      </trkpt>
      <trkpt lat="47.25067" lon="6.01546">
        <ele>319.1</ele>
        <time>2018-02-07T08:06:12Z</time>
      </trkpt>
      <trkpt lat="47.25063" lon="6.01545">
        <ele>318.2</ele>
        <time>2018-02-07T08:06:17Z</time>
      </trkpt>
      <trkpt lat="47.25058" lon="6.01545">
        <ele>318</ele>
        <time>2018-02-07T08:06:22Z</time>
      </trkpt>
      <trkpt lat="47.25052" lon="6.01545">
        <ele>318.5</ele>
        <time>2018-02-07T08:06:27Z</time>
      </trkpt>
      <trkpt lat="47.25051" lon="6.01545">
        <ele>319.8</ele>
        <time>2018-02-07T08:06:32Z</time>
      </trkpt>
      <trkpt lat="47.25051" lon="6.01545">
        <ele>319.8</ele>
        <time>2018-02-07T08:06:37Z</time>
      </trkpt>
      <trkpt lat="47.25051" lon="6.01545">
        <ele>319.8</ele>
        <time>2018-02-07T08:06:42Z</time>
      </trkpt>
      <trkpt lat="47.25051" lon="6.01545">
        <ele>319.8</ele>
        <time>2018-02-07T08:06:47Z</time>
      </trkpt>
      <trkpt lat="47.25051" lon="6.01545">
        <ele>319.8</ele>
        <time>2018-02-07T08:06:52Z</time>
      </trkpt>
      <trkpt lat="47.25051" lon="6.01545">
        <ele>319.8</ele>
        <time>2018-02-07T08:06:57Z</time>
      </trkpt>
      <trkpt lat="47.25051" lon="6.01545">
        <ele>319.8</ele>
        <time>2018-02-07T08:07:02Z</time>
      </trkpt>
      <trkpt lat="47.25051" lon="6.01546">
        <ele>320.6</ele>
        <time>2018-02-07T08:07:07Z</time>
      </trkpt>
      <trkpt lat="47.25052" lon="6.01546">
        <ele>321.4</ele>
        <time>2018-02-07T08:07:12Z</time>
      </trkpt>
      <trkpt lat="47.25052" lon="6.01547">
        <ele>320.7</ele>
        <time>2018-02-07T08:07:17Z</time>
      </trkpt>
      <trkpt lat="47.25052" lon="6.01547">
        <ele>320.7</ele>
        <time>2018-02-07T08:07:22Z</time>
      </trkpt>
      <trkpt lat="47.25052" lon="6.01547">
        <ele>320.7</ele>
        <time>2018-02-07T08:07:27Z</time>
      </trkpt>
      <trkpt lat="47.25052" lon="6.01547">
        <ele>320.7</ele>
        <time>2018-02-07T08:07:32Z</time>
      </trkpt>
      <trkpt lat="47.25052" lon="6.01547">
        <ele>320.7</ele>
        <time>2018-02-07T08:07:37Z</time>
      </trkpt>
      <trkpt lat="47.25052" lon="6.01547">
        <ele>320.7</ele>
        <time>2018-02-07T08:07:42Z</time>
      </trkpt>
      <trkpt lat="47.25052" lon="6.01547">
        <ele>320.7</ele>
        <time>2018-02-07T08:07:47Z</time>
      </trkpt>
      <trkpt lat="47.25052" lon="6.01547">
        <ele>320.7</ele>
        <time>2018-02-07T08:07:52Z</time>
      </trkpt>
      <trkpt lat="47.25052" lon="6.01547">
        <ele>320.7</ele>
        <time>2018-02-07T08:07:57Z</time>
      </trkpt>
      <trkpt lat="47.25052" lon="6.01547">
        <ele>320.7</ele>
        <time>2018-02-07T08:08:02Z</time>
      </trkpt>
      <trkpt lat="47.25052" lon="6.01547">
        <ele>320.7</ele>
        <time>2018-02-07T08:08:07Z</time>
      </trkpt>
      <trkpt lat="47.25052" lon="6.01547">
        <ele>320.7</ele>
        <time>2018-02-07T08:08:12Z</time>
      </trkpt>
      <trkpt lat="47.25052" lon="6.01548">
        <ele>321.4</ele>
        <time>2018-02-07T08:08:17Z</time>
      </trkpt>
      <trkpt lat="47.25048" lon="6.01546">
        <ele>321.2</ele>
        <time>2018-02-07T08:08:22Z</time>
      </trkpt>
      <trkpt lat="47.25043" lon="6.01544">
        <ele>321.6</ele>
        <time>2018-02-07T08:08:27Z</time>
      </trkpt>
      <trkpt lat="47.25038" lon="6.01544">
        <ele>321.4</ele>
        <time>2018-02-07T08:08:32Z</time>
      </trkpt>
      <trkpt lat="47.25034" lon="6.01543">
        <ele>321.9</ele>
        <time>2018-02-07T08:08:37Z</time>
      </trkpt>
      <trkpt lat="47.25028" lon="6.01541">
        <ele>321.5</ele>
        <time>2018-02-07T08:08:42Z</time>
      </trkpt>
      <trkpt lat="47.25023" lon="6.0154">
        <ele>322</ele>
        <time>2018-02-07T08:08:47Z</time>
      </trkpt>
      <trkpt lat="47.25018" lon="6.0154">
        <ele>321.8</ele>
        <time>2018-02-07T08:08:52Z</time>
      </trkpt>
      <trkpt lat="47.25014" lon="6.01542">
        <ele>320.3</ele>
        <time>2018-02-07T08:08:57Z</time>
      </trkpt>
      <trkpt lat="47.2501" lon="6.01544">
        <ele>319.6</ele>
        <time>2018-02-07T08:09:02Z</time>
      </trkpt>
      <trkpt lat="47.25005" lon="6.01548">
        <ele>318.9</ele>
        <time>2018-02-07T08:09:07Z</time>
      </trkpt>
      <trkpt lat="47.25" lon="6.01552">
        <ele>318.2</ele>
        <time>2018-02-07T08:09:12Z</time>
      </trkpt>
      <trkpt lat="47.24996" lon="6.01554">
        <ele>317.4</ele>
        <time>2018-02-07T08:09:17Z</time>
      </trkpt>
      <trkpt lat="47.24991" lon="6.01556">
        <ele>317.3</ele>
        <time>2018-02-07T08:09:22Z</time>
      </trkpt>
      <trkpt lat="47.24987" lon="6.01561">
        <ele>317.4</ele>
        <time>2018-02-07T08:09:27Z</time>
      </trkpt>
      <trkpt lat="47.24982" lon="6.01564">
        <ele>318.1</ele>
        <time>2018-02-07T08:09:32Z</time>
      </trkpt>
      <trkpt lat="47.24978" lon="6.01569">
        <ele>318.2</ele>
        <time>2018-02-07T08:09:37Z</time>
      </trkpt>
      <trkpt lat="47.24975" lon="6.01574">
        <ele>316.2</ele>
        <time>2018-02-07T08:09:42Z</time>
      </trkpt>
      <trkpt lat="47.24971" lon="6.01576">
        <ele>315.5</ele>
        <time>2018-02-07T08:09:47Z</time>
      </trkpt>
      <trkpt lat="47.24967" lon="6.01579">
        <ele>314.8</ele>
        <time>2018-02-07T08:09:52Z</time>
      </trkpt>
      <trkpt lat="47.24963" lon="6.01579">
        <ele>314.7</ele>
        <time>2018-02-07T08:09:57Z</time>
      </trkpt>
      <trkpt lat="47.24959" lon="6.01583">
        <ele>314.7</ele>
        <time>2018-02-07T08:10:02Z</time>
      </trkpt>
      <trkpt lat="47.24954" lon="6.01586">
        <ele>315.4</ele>
        <time>2018-02-07T08:10:07Z</time>
      </trkpt>
      <trkpt lat="47.24949" lon="6.01591">
        <ele>314.8</ele>
        <time>2018-02-07T08:10:12Z</time>
      </trkpt>
      <trkpt lat="47.24945" lon="6.01595">
        <ele>314.1</ele>
        <time>2018-02-07T08:10:17Z</time>
      </trkpt>
      <trkpt lat="47.24939" lon="6.01597">
        <ele>314.7</ele>
        <time>2018-02-07T08:10:22Z</time>
      </trkpt>
      <trkpt lat="47.24934" lon="6.016">
        <ele>314.6</ele>
        <time>2018-02-07T08:10:27Z</time>
      </trkpt>
      <trkpt lat="47.24929" lon="6.01603">
        <ele>315.3</ele>
        <time>2018-02-07T08:10:32Z</time>
      </trkpt>
      <trkpt lat="47.24924" lon="6.01607">
        <ele>316.7</ele>
        <time>2018-02-07T08:10:37Z</time>
      </trkpt>
      <trkpt lat="47.24919" lon="6.0161">
        <ele>317.4</ele>
        <time>2018-02-07T08:10:42Z</time>
      </trkpt>
      <trkpt lat="47.24916" lon="6.01614">
        <ele>315.4</ele>
        <time>2018-02-07T08:10:47Z</time>
      </trkpt>
      <trkpt lat="47.24912" lon="6.01616">
        <ele>315.4</ele>
        <time>2018-02-07T08:10:52Z</time>
      </trkpt>
      <trkpt lat="47.24908" lon="6.01618">
        <ele>315.3</ele>
        <time>2018-02-07T08:10:57Z</time>
      </trkpt>
      <trkpt lat="47.24904" lon="6.01622">
        <ele>315.4</ele>
        <time>2018-02-07T08:11:02Z</time>
      </trkpt>
      <trkpt lat="47.24898" lon="6.01624">
        <ele>317.3</ele>
        <time>2018-02-07T08:11:07Z</time>
      </trkpt>
      <trkpt lat="47.24895" lon="6.01625">
        <ele>318</ele>
        <time>2018-02-07T08:11:12Z</time>
      </trkpt>
      <trkpt lat="47.24891" lon="6.01627">
        <ele>318.7</ele>
        <time>2018-02-07T08:11:17Z</time>
      </trkpt>
      <trkpt lat="47.24887" lon="6.01629">
        <ele>320</ele>
        <time>2018-02-07T08:11:22Z</time>
      </trkpt>
      <trkpt lat="47.24884" lon="6.0163">
        <ele>318.5</ele>
        <time>2018-02-07T08:11:27Z</time>
      </trkpt>
      <trkpt lat="47.24879" lon="6.01632">
        <ele>319.2</ele>
        <time>2018-02-07T08:11:32Z</time>
      </trkpt>
      <trkpt lat="47.24874" lon="6.01634">
        <ele>318.4</ele>
        <time>2018-02-07T08:11:37Z</time>
      </trkpt>
      <trkpt lat="47.2487" lon="6.01635">
        <ele>317.6</ele>
        <time>2018-02-07T08:11:42Z</time>
      </trkpt>
      <trkpt lat="47.24865" lon="6.01638">
        <ele>317.5</ele>
        <time>2018-02-07T08:11:47Z</time>
      </trkpt>
      <trkpt lat="47.24859" lon="6.01639">
        <ele>319.5</ele>
        <time>2018-02-07T08:11:52Z</time>
      </trkpt>
      <trkpt lat="47.24854" lon="6.01641">
        <ele>318.7</ele>
        <time>2018-02-07T08:11:57Z</time>
      </trkpt>
      <trkpt lat="47.2485" lon="6.01643">
        <ele>317.2</ele>
        <time>2018-02-07T08:12:02Z</time>
      </trkpt>
      <trkpt lat="47.24846" lon="6.01645">
        <ele>315</ele>
        <time>2018-02-07T08:12:07Z</time>
      </trkpt>
      <trkpt lat="47.2484" lon="6.01646">
        <ele>315.6</ele>
        <time>2018-02-07T08:12:12Z</time>
      </trkpt>
      <trkpt lat="47.24835" lon="6.0165">
        <ele>314.9</ele>
        <time>2018-02-07T08:12:17Z</time>
      </trkpt>
      <trkpt lat="47.2483" lon="6.01652">
        <ele>313.4</ele>
        <time>2018-02-07T08:12:22Z</time>
      </trkpt>
      <trkpt lat="47.24825" lon="6.01654">
        <ele>313.3</ele>
        <time>2018-02-07T08:12:27Z</time>
      </trkpt>
      <trkpt lat="47.2482" lon="6.01656">
        <ele>313.9</ele>
        <time>2018-02-07T08:12:32Z</time>
      </trkpt>
      <trkpt lat="47.24815" lon="6.01658">
        <ele>314.5</ele>
        <time>2018-02-07T08:12:37Z</time>
      </trkpt>
      <trkpt lat="47.24809" lon="6.01662">
        <ele>314.5</ele>
        <time>2018-02-07T08:12:42Z</time>
      </trkpt>
      <trkpt lat="47.24805" lon="6.01664">
        <ele>313.7</ele>
        <time>2018-02-07T08:12:47Z</time>
      </trkpt>
      <trkpt lat="47.24801" lon="6.01668">
        <ele>310.9</ele>
        <time>2018-02-07T08:12:52Z</time>
      </trkpt>
      <trkpt lat="47.24796" lon="6.01671">
        <ele>310.9</ele>
        <time>2018-02-07T08:12:57Z</time>
      </trkpt>
      <trkpt lat="47.24793" lon="6.01673">
        <ele>310.9</ele>
        <time>2018-02-07T08:13:02Z</time>
      </trkpt>
      <trkpt lat="47.2479" lon="6.01674">
        <ele>310.1</ele>
        <time>2018-02-07T08:13:07Z</time>
      </trkpt>
      <trkpt lat="47.24785" lon="6.01675">
        <ele>310</ele>
        <time>2018-02-07T08:13:12Z</time>
      </trkpt>
      <trkpt lat="47.24779" lon="6.01679">
        <ele>307.1</ele>
        <time>2018-02-07T08:13:17Z</time>
      </trkpt>
      <trkpt lat="47.24775" lon="6.01681">
        <ele>306.4</ele>
        <time>2018-02-07T08:13:22Z</time>
      </trkpt>
      <trkpt lat="47.24769" lon="6.01683">
        <ele>305.5</ele>
        <time>2018-02-07T08:13:27Z</time>
      </trkpt>
      <trkpt lat="47.24764" lon="6.01685">
        <ele>306.8</ele>
        <time>2018-02-07T08:13:32Z</time>
      </trkpt>
      <trkpt lat="47.2476" lon="6.01687">
        <ele>307.5</ele>
        <time>2018-02-07T08:13:37Z</time>
      </trkpt>
      <trkpt lat="47.24757" lon="6.01688">
        <ele>306.8</ele>
        <time>2018-02-07T08:13:42Z</time>
      </trkpt>
      <trkpt lat="47.24752" lon="6.01691">
        <ele>305.3</ele>
        <time>2018-02-07T08:13:47Z</time>
      </trkpt>
      <trkpt lat="47.24747" lon="6.01693">
        <ele>304.5</ele>
        <time>2018-02-07T08:13:52Z</time>
      </trkpt>
      <trkpt lat="47.24742" lon="6.01695">
        <ele>303</ele>
        <time>2018-02-07T08:13:57Z</time>
      </trkpt>
      <trkpt lat="47.24738" lon="6.01696">
        <ele>303.6</ele>
        <time>2018-02-07T08:14:02Z</time>
      </trkpt>
      <trkpt lat="47.24732" lon="6.01698">
        <ele>304.1</ele>
        <time>2018-02-07T08:14:07Z</time>
      </trkpt>
      <trkpt lat="47.24726" lon="6.01701">
        <ele>303.4</ele>
        <time>2018-02-07T08:14:12Z</time>
      </trkpt>
      <trkpt lat="47.24719" lon="6.01703">
        <ele>305.3</ele>
        <time>2018-02-07T08:14:17Z</time>
      </trkpt>
      <trkpt lat="47.24714" lon="6.01705">
        <ele>305.2</ele>
        <time>2018-02-07T08:14:22Z</time>
      </trkpt>
      <trkpt lat="47.24708" lon="6.01705">
        <ele>306.5</ele>
        <time>2018-02-07T08:14:27Z</time>
      </trkpt>
      <trkpt lat="47.24703" lon="6.01706">
        <ele>306.3</ele>
        <time>2018-02-07T08:14:32Z</time>
      </trkpt>
      <trkpt lat="47.24699" lon="6.01707">
        <ele>306.2</ele>
        <time>2018-02-07T08:14:37Z</time>
      </trkpt>
      <trkpt lat="47.24696" lon="6.01708">
        <ele>306.1</ele>
        <time>2018-02-07T08:14:42Z</time>
      </trkpt>
      <trkpt lat="47.24691" lon="6.01709">
        <ele>305.2</ele>
        <time>2018-02-07T08:14:47Z</time>
      </trkpt>
      <trkpt lat="47.24686" lon="6.01708">
        <ele>306.4</ele>
        <time>2018-02-07T08:14:52Z</time>
      </trkpt>
      <trkpt lat="47.24681" lon="6.01709">
        <ele>305.6</ele>
        <time>2018-02-07T08:14:57Z</time>
      </trkpt>
      <trkpt lat="47.24678" lon="6.01712">
        <ele>302.7</ele>
        <time>2018-02-07T08:15:02Z</time>
      </trkpt>
      <trkpt lat="47.24673" lon="6.01714">
        <ele>300.5</ele>
        <time>2018-02-07T08:15:07Z</time>
      </trkpt>
      <trkpt lat="47.24667" lon="6.01717">
        <ele>298.4</ele>
        <time>2018-02-07T08:15:12Z</time>
      </trkpt>
      <trkpt lat="47.24663" lon="6.0172">
        <ele>296.9</ele>
        <time>2018-02-07T08:15:17Z</time>
      </trkpt>
      <trkpt lat="47.24659" lon="6.01719">
        <ele>296</ele>
        <time>2018-02-07T08:15:22Z</time>
      </trkpt>
      <trkpt lat="47.24654" lon="6.0172">
        <ele>295.8</ele>
        <time>2018-02-07T08:15:27Z</time>
      </trkpt>
      <trkpt lat="47.24649" lon="6.01722">
        <ele>295.8</ele>
        <time>2018-02-07T08:15:32Z</time>
      </trkpt>
      <trkpt lat="47.24643" lon="6.01723">
        <ele>295.6</ele>
        <time>2018-02-07T08:15:37Z</time>
      </trkpt>
      <trkpt lat="47.24639" lon="6.01724">
        <ele>294.7</ele>
        <time>2018-02-07T08:15:42Z</time>
      </trkpt>
      <trkpt lat="47.24633" lon="6.01726">
        <ele>296.7</ele>
        <time>2018-02-07T08:15:47Z</time>
      </trkpt>
      <trkpt lat="47.24628" lon="6.01726">
        <ele>296.6</ele>
        <time>2018-02-07T08:15:52Z</time>
      </trkpt>
      <trkpt lat="47.24623" lon="6.01729">
        <ele>295.8</ele>
        <time>2018-02-07T08:15:57Z</time>
      </trkpt>
      <trkpt lat="47.24618" lon="6.01729">
        <ele>295.6</ele>
        <time>2018-02-07T08:16:02Z</time>
      </trkpt>
      <trkpt lat="47.24614" lon="6.01729">
        <ele>296.1</ele>
        <time>2018-02-07T08:16:07Z</time>
      </trkpt>
      <trkpt lat="47.24609" lon="6.0173">
        <ele>296</ele>
        <time>2018-02-07T08:16:12Z</time>
      </trkpt>
      <trkpt lat="47.24603" lon="6.0173">
        <ele>296.5</ele>
        <time>2018-02-07T08:16:17Z</time>
      </trkpt>
      <trkpt lat="47.24598" lon="6.01731">
        <ele>297.7</ele>
        <time>2018-02-07T08:16:22Z</time>
      </trkpt>
      <trkpt lat="47.24592" lon="6.01733">
        <ele>299</ele>
        <time>2018-02-07T08:16:27Z</time>
      </trkpt>
      <trkpt lat="47.24587" lon="6.01735">
        <ele>299.6</ele>
        <time>2018-02-07T08:16:32Z</time>
      </trkpt>
      <trkpt lat="47.24581" lon="6.01737">
        <ele>300.2</ele>
        <time>2018-02-07T08:16:37Z</time>
      </trkpt>
      <trkpt lat="47.24577" lon="6.01738">
        <ele>300.8</ele>
        <time>2018-02-07T08:16:42Z</time>
      </trkpt>
      <trkpt lat="47.24573" lon="6.01738">
        <ele>300</ele>
        <time>2018-02-07T08:16:47Z</time>
      </trkpt>
      <trkpt lat="47.24572" lon="6.01737">
        <ele>299.9</ele>
        <time>2018-02-07T08:16:52Z</time>
      </trkpt>
      <trkpt lat="47.24572" lon="6.01737">
        <ele>299.9</ele>
        <time>2018-02-07T08:16:57Z</time>
      </trkpt>
      <trkpt lat="47.24572" lon="6.01737">
        <ele>299.9</ele>
        <time>2018-02-07T08:17:02Z</time>
      </trkpt>
      <trkpt lat="47.24569" lon="6.0174">
        <ele>297.1</ele>
        <time>2018-02-07T08:17:07Z</time>
      </trkpt>
      <trkpt lat="47.24563" lon="6.01742">
        <ele>294.8</ele>
        <time>2018-02-07T08:17:12Z</time>
      </trkpt>
      <trkpt lat="47.24559" lon="6.01745">
        <ele>293.4</ele>
        <time>2018-02-07T08:17:17Z</time>
      </trkpt>
      <trkpt lat="47.24557" lon="6.01751">
        <ele>291.5</ele>
        <time>2018-02-07T08:17:22Z</time>
      </trkpt>
      <trkpt lat="47.24556" lon="6.01757">
        <ele>290.4</ele>
        <time>2018-02-07T08:17:27Z</time>
      </trkpt>
      <trkpt lat="47.24555" lon="6.01764">
        <ele>289.4</ele>
        <time>2018-02-07T08:17:32Z</time>
      </trkpt>
      <trkpt lat="47.24558" lon="6.01771">
        <ele>288.4</ele>
        <time>2018-02-07T08:17:37Z</time>
      </trkpt>
      <trkpt lat="47.24561" lon="6.01777">
        <ele>288.2</ele>
        <time>2018-02-07T08:17:42Z</time>
      </trkpt>
      <trkpt lat="47.24564" lon="6.01781">
        <ele>288.5</ele>
        <time>2018-02-07T08:17:47Z</time>
      </trkpt>
      <trkpt lat="47.24568" lon="6.01788">
        <ele>288.4</ele>
        <time>2018-02-07T08:17:52Z</time>
      </trkpt>
      <trkpt lat="47.24572" lon="6.01794">
        <ele>287.5</ele>
        <time>2018-02-07T08:17:57Z</time>
      </trkpt>
      <trkpt lat="47.24574" lon="6.01801">
        <ele>287.9</ele>
        <time>2018-02-07T08:18:02Z</time>
      </trkpt>
      <trkpt lat="47.24579" lon="6.01808">
        <ele>288.5</ele>
        <time>2018-02-07T08:18:07Z</time>
      </trkpt>
      <trkpt lat="47.24582" lon="6.01815">
        <ele>288.3</ele>
        <time>2018-02-07T08:18:12Z</time>
      </trkpt>
      <trkpt lat="47.24584" lon="6.01819">
        <ele>288.7</ele>
        <time>2018-02-07T08:18:17Z</time>
      </trkpt>
      <trkpt lat="47.24585" lon="6.01823">
        <ele>288.9</ele>
        <time>2018-02-07T08:18:22Z</time>
      </trkpt>
      <trkpt lat="47.24587" lon="6.01825">
        <ele>289.8</ele>
        <time>2018-02-07T08:18:27Z</time>
      </trkpt>
      <trkpt lat="47.24591" lon="6.0183">
        <ele>289.6</ele>
        <time>2018-02-07T08:18:32Z</time>
      </trkpt>
      <trkpt lat="47.24595" lon="6.01839">
        <ele>289.5</ele>
        <time>2018-02-07T08:18:37Z</time>
      </trkpt>
      <trkpt lat="47.246" lon="6.01846">
        <ele>290.1</ele>
        <time>2018-02-07T08:18:42Z</time>
      </trkpt>
      <trkpt lat="47.24604" lon="6.01852">
        <ele>289.9</ele>
        <time>2018-02-07T08:18:47Z</time>
      </trkpt>
      <trkpt lat="47.24608" lon="6.01856">
        <ele>288.2</ele>
        <time>2018-02-07T08:18:52Z</time>
      </trkpt>
      <trkpt lat="47.2461" lon="6.01864">
        <ele>289.4</ele>
        <time>2018-02-07T08:18:57Z</time>
      </trkpt>
      <trkpt lat="47.24609" lon="6.01872">
        <ele>288.4</ele>
        <time>2018-02-07T08:19:02Z</time>
      </trkpt>
      <trkpt lat="47.24612" lon="6.01875">
        <ele>288.7</ele>
        <time>2018-02-07T08:19:07Z</time>
      </trkpt>
      <trkpt lat="47.24616" lon="6.01877">
        <ele>288.3</ele>
        <time>2018-02-07T08:19:12Z</time>
      </trkpt>
      <trkpt lat="47.2462" lon="6.0188">
        <ele>287.9</ele>
        <time>2018-02-07T08:19:17Z</time>
      </trkpt>
      <trkpt lat="47.24625" lon="6.01885">
        <ele>287.6</ele>
        <time>2018-02-07T08:19:22Z</time>
      </trkpt>
      <trkpt lat="47.2463" lon="6.01888">
        <ele>287.3</ele>
        <time>2018-02-07T08:19:27Z</time>
      </trkpt>
      <trkpt lat="47.24635" lon="6.01893">
        <ele>287.1</ele>
        <time>2018-02-07T08:19:32Z</time>
      </trkpt>
      <trkpt lat="47.24639" lon="6.01896">
        <ele>286.7</ele>
        <time>2018-02-07T08:19:37Z</time>
      </trkpt>
      <trkpt lat="47.24644" lon="6.019">
        <ele>287.1</ele>
        <time>2018-02-07T08:19:42Z</time>
      </trkpt>
      <trkpt lat="47.24649" lon="6.01905">
        <ele>287.6</ele>
        <time>2018-02-07T08:19:47Z</time>
      </trkpt>
      <trkpt lat="47.24654" lon="6.0191">
        <ele>286.6</ele>
        <time>2018-02-07T08:19:52Z</time>
      </trkpt>
      <trkpt lat="47.24658" lon="6.01913">
        <ele>287</ele>
        <time>2018-02-07T08:19:57Z</time>
      </trkpt>
      <trkpt lat="47.24662" lon="6.01918">
        <ele>287.5</ele>
        <time>2018-02-07T08:20:02Z</time>
      </trkpt>
      <trkpt lat="47.24666" lon="6.01923">
        <ele>287.2</ele>
        <time>2018-02-07T08:20:07Z</time>
      </trkpt>
      <trkpt lat="47.2467" lon="6.01927">
        <ele>287.6</ele>
        <time>2018-02-07T08:20:12Z</time>
      </trkpt>
      <trkpt lat="47.24675" lon="6.01931">
        <ele>286.6</ele>
        <time>2018-02-07T08:20:17Z</time>
      </trkpt>
      <trkpt lat="47.24676" lon="6.01936">
        <ele>286.2</ele>
        <time>2018-02-07T08:20:22Z</time>
      </trkpt>
      <trkpt lat="47.24678" lon="6.01939">
        <ele>286.4</ele>
        <time>2018-02-07T08:20:27Z</time>
      </trkpt>
      <trkpt lat="47.24678" lon="6.01939">
        <ele>286.4</ele>
        <time>2018-02-07T08:20:32Z</time>
      </trkpt>
      <trkpt lat="47.24678" lon="6.0194">
        <ele>285.8</ele>
        <time>2018-02-07T08:20:37Z</time>
      </trkpt>
      <trkpt lat="47.24678" lon="6.0194">
        <ele>285.8</ele>
        <time>2018-02-07T08:20:42Z</time>
      </trkpt>
      <trkpt lat="47.24678" lon="6.0194">
        <ele>285.8</ele>
        <time>2018-02-07T08:20:47Z</time>
      </trkpt>
      <trkpt lat="47.24678" lon="6.01942">
        <ele>285.9</ele>
        <time>2018-02-07T08:20:52Z</time>
      </trkpt>
      <trkpt lat="47.24675" lon="6.01947">
        <ele>284.6</ele>
        <time>2018-02-07T08:20:57Z</time>
      </trkpt>
      <trkpt lat="47.2467" lon="6.01956">
        <ele>284.2</ele>
        <time>2018-02-07T08:21:02Z</time>
      </trkpt>
      <trkpt lat="47.24669" lon="6.01962">
        <ele>283.9</ele>
        <time>2018-02-07T08:21:07Z</time>
      </trkpt>
      <trkpt lat="47.24672" lon="6.01969">
        <ele>285.7</ele>
        <time>2018-02-07T08:21:12Z</time>
      </trkpt>
      <trkpt lat="47.24673" lon="6.0197">
        <ele>285.2</ele>
        <time>2018-02-07T08:21:17Z</time>
      </trkpt>
      <trkpt lat="47.24673" lon="6.0197">
        <ele>285.2</ele>
        <time>2018-02-07T08:21:22Z</time>
      </trkpt>
      <trkpt lat="47.24673" lon="6.01973">
        <ele>286</ele>
        <time>2018-02-07T08:21:27Z</time>
      </trkpt>
      <trkpt lat="47.24674" lon="6.01973">
        <ele>286.1</ele>
        <time>2018-02-07T08:21:32Z</time>
      </trkpt>
      <trkpt lat="47.24677" lon="6.01977">
        <ele>285.7</ele>
        <time>2018-02-07T08:21:37Z</time>
      </trkpt>
      <trkpt lat="47.2468" lon="6.01983">
        <ele>285.5</ele>
        <time>2018-02-07T08:21:42Z</time>
      </trkpt>
      <trkpt lat="47.24683" lon="6.01989">
        <ele>285.9</ele>
        <time>2018-02-07T08:21:47Z</time>
      </trkpt>
      <trkpt lat="47.24687" lon="6.01994">
        <ele>286.4</ele>
        <time>2018-02-07T08:21:52Z</time>
      </trkpt>
      <trkpt lat="47.2469" lon="6.02">
        <ele>286.1</ele>
        <time>2018-02-07T08:21:57Z</time>
      </trkpt>
      <trkpt lat="47.24693" lon="6.02007">
        <ele>285.9</ele>
        <time>2018-02-07T08:22:02Z</time>
      </trkpt>
      <trkpt lat="47.24695" lon="6.02014">
        <ele>286.4</ele>
        <time>2018-02-07T08:22:07Z</time>
      </trkpt>
      <trkpt lat="47.24697" lon="6.02021">
        <ele>285.4</ele>
        <time>2018-02-07T08:22:12Z</time>
      </trkpt>
      <trkpt lat="47.247" lon="6.02028">
        <ele>285.2</ele>
        <time>2018-02-07T08:22:17Z</time>
      </trkpt>
      <trkpt lat="47.24703" lon="6.02034">
        <ele>285</ele>
        <time>2018-02-07T08:22:22Z</time>
      </trkpt>
      <trkpt lat="47.24705" lon="6.0204">
        <ele>285.5</ele>
        <time>2018-02-07T08:22:27Z</time>
      </trkpt>
      <trkpt lat="47.24709" lon="6.02046">
        <ele>284.5</ele>
        <time>2018-02-07T08:22:32Z</time>
      </trkpt>
      <trkpt lat="47.24712" lon="6.02052">
        <ele>285</ele>
        <time>2018-02-07T08:22:37Z</time>
      </trkpt>
      <trkpt lat="47.24716" lon="6.02058">
        <ele>284.8</ele>
        <time>2018-02-07T08:22:42Z</time>
      </trkpt>
      <trkpt lat="47.2472" lon="6.02063">
        <ele>285.2</ele>
        <time>2018-02-07T08:22:47Z</time>
      </trkpt>
      <trkpt lat="47.24723" lon="6.02068">
        <ele>284.9</ele>
        <time>2018-02-07T08:22:52Z</time>
      </trkpt>
      <trkpt lat="47.24727" lon="6.02073">
        <ele>284.7</ele>
        <time>2018-02-07T08:22:57Z</time>
      </trkpt>
      <trkpt lat="47.2473" lon="6.02078">
        <ele>284.3</ele>
        <time>2018-02-07T08:23:02Z</time>
      </trkpt>
      <trkpt lat="47.24734" lon="6.02084">
        <ele>284.1</ele>
        <time>2018-02-07T08:23:07Z</time>
      </trkpt>
      <trkpt lat="47.24739" lon="6.02089">
        <ele>284.6</ele>
        <time>2018-02-07T08:23:12Z</time>
      </trkpt>
      <trkpt lat="47.24743" lon="6.02095">
        <ele>284.4</ele>
        <time>2018-02-07T08:23:17Z</time>
      </trkpt>
      <trkpt lat="47.24746" lon="6.02101">
        <ele>284.1</ele>
        <time>2018-02-07T08:23:22Z</time>
      </trkpt>
      <trkpt lat="47.24751" lon="6.02108">
        <ele>284.7</ele>
        <time>2018-02-07T08:23:27Z</time>
      </trkpt>
      <trkpt lat="47.24754" lon="6.02114">
        <ele>285.2</ele>
        <time>2018-02-07T08:23:32Z</time>
      </trkpt>
      <trkpt lat="47.24759" lon="6.02118">
        <ele>285.6</ele>
        <time>2018-02-07T08:23:37Z</time>
      </trkpt>
      <trkpt lat="47.24763" lon="6.02123">
        <ele>285.4</ele>
        <time>2018-02-07T08:23:42Z</time>
      </trkpt>
      <trkpt lat="47.24766" lon="6.02126">
        <ele>284.9</ele>
        <time>2018-02-07T08:23:47Z</time>
      </trkpt>
      <trkpt lat="47.24768" lon="6.02129">
        <ele>284.5</ele>
        <time>2018-02-07T08:23:52Z</time>
      </trkpt>
      <trkpt lat="47.24769" lon="6.02133">
        <ele>285.4</ele>
        <time>2018-02-07T08:23:57Z</time>
      </trkpt>
      <trkpt lat="47.2477" lon="6.02134">
        <ele>287</ele>
        <time>2018-02-07T08:24:02Z</time>
      </trkpt>
      <trkpt lat="47.24772" lon="6.02134">
        <ele>287.1</ele>
        <time>2018-02-07T08:24:07Z</time>
      </trkpt>
      <trkpt lat="47.24775" lon="6.02133">
        <ele>287.1</ele>
        <time>2018-02-07T08:24:12Z</time>
      </trkpt>
      <trkpt lat="47.24777" lon="6.02136">
        <ele>287.4</ele>
        <time>2018-02-07T08:24:17Z</time>
      </trkpt>
      <trkpt lat="47.24779" lon="6.02138">
        <ele>286.1</ele>
        <time>2018-02-07T08:24:22Z</time>
      </trkpt>
      <trkpt lat="47.2478" lon="6.02139">
        <ele>287</ele>
        <time>2018-02-07T08:24:27Z</time>
      </trkpt>
      <trkpt lat="47.24781" lon="6.02139">
        <ele>286.3</ele>
        <time>2018-02-07T08:24:32Z</time>
      </trkpt>
      <trkpt lat="47.2478" lon="6.02139">
        <ele>286.2</ele>
        <time>2018-02-07T08:24:37Z</time>
      </trkpt>
      <trkpt lat="47.2478" lon="6.02142">
        <ele>286.4</ele>
        <time>2018-02-07T08:24:42Z</time>
      </trkpt>
      <trkpt lat="47.24778" lon="6.02144">
        <ele>286.5</ele>
        <time>2018-02-07T08:24:47Z</time>
      </trkpt>
      <trkpt lat="47.24778" lon="6.02143">
        <ele>286.4</ele>
        <time>2018-02-07T08:24:52Z</time>
      </trkpt>
      <trkpt lat="47.24774" lon="6.02146">
        <ele>285.7</ele>
        <time>2018-02-07T08:25:11Z</time>
      </trkpt>
      <trkpt lat="47.24772" lon="6.02149">
        <ele>281.6</ele>
        <time>2018-02-07T08:25:23Z</time>
      </trkpt>
      <trkpt lat="47.24767" lon="6.02162">
        <ele>283.4</ele>
        <time>2018-02-07T08:25:28Z</time>
      </trkpt>
      <trkpt lat="47.24762" lon="6.02169">
        <ele>283.7</ele>
        <time>2018-02-07T08:25:36Z</time>
      </trkpt>
      <trkpt lat="47.24738" lon="6.02195">
        <ele>277.7</ele>
        <time>2018-02-07T08:26:20Z</time>
      </trkpt>
      <trkpt lat="47.24692" lon="6.02244">
        <ele>277.2</ele>
        <time>2018-02-07T08:26:25Z</time>
      </trkpt>
      <trkpt lat="47.24691" lon="6.02241">
        <ele>280.6</ele>
        <time>2018-02-07T08:26:30Z</time>
      </trkpt>
      <trkpt lat="47.24687" lon="6.02239">
        <ele>279.6</ele>
        <time>2018-02-07T08:26:35Z</time>
      </trkpt>
      <trkpt lat="47.24682" lon="6.02239">
        <ele>279.4</ele>
        <time>2018-02-07T08:26:40Z</time>
      </trkpt>
      <trkpt lat="47.24681" lon="6.02239">
        <ele>279.3</ele>
        <time>2018-02-07T08:26:45Z</time>
      </trkpt>
      <trkpt lat="47.24675" lon="6.02239">
        <ele>279.1</ele>
        <time>2018-02-07T08:26:50Z</time>
      </trkpt>
      <trkpt lat="47.2467" lon="6.0224">
        <ele>279</ele>
        <time>2018-02-07T08:26:55Z</time>
      </trkpt>
      <trkpt lat="47.24665" lon="6.0224">
        <ele>278.7</ele>
        <time>2018-02-07T08:27:00Z</time>
      </trkpt>
      <trkpt lat="47.24659" lon="6.0224">
        <ele>277.8</ele>
        <time>2018-02-07T08:27:05Z</time>
      </trkpt>
      <trkpt lat="47.24654" lon="6.02241">
        <ele>278.4</ele>
        <time>2018-02-07T08:27:13Z</time>
      </trkpt>
      <trkpt lat="47.24648" lon="6.02239">
        <ele>277.3</ele>
        <time>2018-02-07T08:27:18Z</time>
      </trkpt>
      <trkpt lat="47.24643" lon="6.02237">
        <ele>277</ele>
        <time>2018-02-07T08:27:23Z</time>
      </trkpt>
      <trkpt lat="47.24639" lon="6.02237">
        <ele>276.8</ele>
        <time>2018-02-07T08:27:28Z</time>
      </trkpt>
      <trkpt lat="47.24635" lon="6.02239">
        <ele>276.1</ele>
        <time>2018-02-07T08:27:33Z</time>
      </trkpt>
      <trkpt lat="47.24633" lon="6.0224">
        <ele>276.7</ele>
        <time>2018-02-07T08:27:38Z</time>
      </trkpt>
      <trkpt lat="47.24633" lon="6.0224">
        <ele>276.7</ele>
        <time>2018-02-07T08:27:43Z</time>
      </trkpt>
      <trkpt lat="47.24633" lon="6.0224">
        <ele>276.7</ele>
        <time>2018-02-07T08:27:48Z</time>
      </trkpt>
      <trkpt lat="47.24633" lon="6.0224">
        <ele>276.7</ele>
        <time>2018-02-07T08:27:53Z</time>
      </trkpt>
      <trkpt lat="47.24633" lon="6.0224">
        <ele>276.7</ele>
        <time>2018-02-07T08:27:58Z</time>
      </trkpt>
      <trkpt lat="47.24633" lon="6.0224">
        <ele>276.7</ele>
        <time>2018-02-07T08:28:03Z</time>
      </trkpt>
      <trkpt lat="47.24633" lon="6.02239">
        <ele>276.7</ele>
        <time>2018-02-07T08:28:08Z</time>
      </trkpt>
      <trkpt lat="47.24629" lon="6.02241">
        <ele>276.6</ele>
        <time>2018-02-07T08:28:13Z</time>
      </trkpt>
      <trkpt lat="47.24625" lon="6.02243">
        <ele>276.6</ele>
        <time>2018-02-07T08:28:18Z</time>
      </trkpt>
      <trkpt lat="47.24619" lon="6.02244">
        <ele>277.1</ele>
        <time>2018-02-07T08:28:23Z</time>
      </trkpt>
      <trkpt lat="47.24615" lon="6.02241">
        <ele>277.5</ele>
        <time>2018-02-07T08:28:28Z</time>
      </trkpt>
      <trkpt lat="47.24611" lon="6.02236">
        <ele>277.1</ele>
        <time>2018-02-07T08:28:33Z</time>
      </trkpt>
      <trkpt lat="47.24606" lon="6.02232">
        <ele>276.6</ele>
        <time>2018-02-07T08:28:38Z</time>
      </trkpt>
      <trkpt lat="47.24602" lon="6.02229">
        <ele>277</ele>
        <time>2018-02-07T08:28:43Z</time>
      </trkpt>
      <trkpt lat="47.24596" lon="6.02225">
        <ele>277.3</ele>
        <time>2018-02-07T08:28:48Z</time>
      </trkpt>
      <trkpt lat="47.24591" lon="6.02223">
        <ele>277</ele>
        <time>2018-02-07T08:28:53Z</time>
      </trkpt>
      <trkpt lat="47.24586" lon="6.0222">
        <ele>275.9</ele>
        <time>2018-02-07T08:28:58Z</time>
      </trkpt>
      <trkpt lat="47.24581" lon="6.02218">
        <ele>275.6</ele>
        <time>2018-02-07T08:29:03Z</time>
      </trkpt>
      <trkpt lat="47.24575" lon="6.02215">
        <ele>275.8</ele>
        <time>2018-02-07T08:29:08Z</time>
      </trkpt>
      <trkpt lat="47.2457" lon="6.02212">
        <ele>275.5</ele>
        <time>2018-02-07T08:29:13Z</time>
      </trkpt>
      <trkpt lat="47.24565" lon="6.0221">
        <ele>275.8</ele>
        <time>2018-02-07T08:29:18Z</time>
      </trkpt>
      <trkpt lat="47.2456" lon="6.02207">
        <ele>275.5</ele>
        <time>2018-02-07T08:29:23Z</time>
      </trkpt>
      <trkpt lat="47.24555" lon="6.02204">
        <ele>275.1</ele>
        <time>2018-02-07T08:29:28Z</time>
      </trkpt>
      <trkpt lat="47.2455" lon="6.02202">
        <ele>274.8</ele>
        <time>2018-02-07T08:29:33Z</time>
      </trkpt>
      <trkpt lat="47.24544" lon="6.02198">
        <ele>275.1</ele>
        <time>2018-02-07T08:29:38Z</time>
      </trkpt>
      <trkpt lat="47.24539" lon="6.02197">
        <ele>274.8</ele>
        <time>2018-02-07T08:29:43Z</time>
      </trkpt>
      <trkpt lat="47.24534" lon="6.02195">
        <ele>275.1</ele>
        <time>2018-02-07T08:29:48Z</time>
      </trkpt>
      <trkpt lat="47.24529" lon="6.02191">
        <ele>274.7</ele>
        <time>2018-02-07T08:29:53Z</time>
      </trkpt>
      <trkpt lat="47.24524" lon="6.02188">
        <ele>275.8</ele>
        <time>2018-02-07T08:29:58Z</time>
      </trkpt>
      <trkpt lat="47.24519" lon="6.02185">
        <ele>275.4</ele>
        <time>2018-02-07T08:30:03Z</time>
      </trkpt>
      <trkpt lat="47.24513" lon="6.02181">
        <ele>277.1</ele>
        <time>2018-02-07T08:30:08Z</time>
      </trkpt>
      <trkpt lat="47.24508" lon="6.02178">
        <ele>278.1</ele>
        <time>2018-02-07T08:30:13Z</time>
      </trkpt>
      <trkpt lat="47.24503" lon="6.02177">
        <ele>277.9</ele>
        <time>2018-02-07T08:30:18Z</time>
      </trkpt>
      <trkpt lat="47.24501" lon="6.02177">
        <ele>277.8</ele>
        <time>2018-02-07T08:30:23Z</time>
      </trkpt>
      <trkpt lat="47.24497" lon="6.02178">
        <ele>278.4</ele>
        <time>2018-02-07T08:30:28Z</time>
      </trkpt>
      <trkpt lat="47.24494" lon="6.02182">
        <ele>278.5</ele>
        <time>2018-02-07T08:30:33Z</time>
      </trkpt>
      <trkpt lat="47.24492" lon="6.02186">
        <ele>277.2</ele>
        <time>2018-02-07T08:30:38Z</time>
      </trkpt>
      <trkpt lat="47.24489" lon="6.02189">
        <ele>275.9</ele>
        <time>2018-02-07T08:30:43Z</time>
      </trkpt>
      <trkpt lat="47.24484" lon="6.02196">
        <ele>272.5</ele>
        <time>2018-02-07T08:30:48Z</time>
      </trkpt>
      <trkpt lat="47.2448" lon="6.02199">
        <ele>271.1</ele>
        <time>2018-02-07T08:30:53Z</time>
      </trkpt>
      <trkpt lat="47.24477" lon="6.02202">
        <ele>271.1</ele>
        <time>2018-02-07T08:30:58Z</time>
      </trkpt>
      <trkpt lat="47.24472" lon="6.02204">
        <ele>270.3</ele>
        <time>2018-02-07T08:31:03Z</time>
      </trkpt>
      <trkpt lat="47.24467" lon="6.02209">
        <ele>270.4</ele>
        <time>2018-02-07T08:31:08Z</time>
      </trkpt>
      <trkpt lat="47.24462" lon="6.02212">
        <ele>269.7</ele>
        <time>2018-02-07T08:31:13Z</time>
      </trkpt>
      <trkpt lat="47.24458" lon="6.02216">
        <ele>269.7</ele>
        <time>2018-02-07T08:31:18Z</time>
      </trkpt>
      <trkpt lat="47.24453" lon="6.02219">
        <ele>269.7</ele>
        <time>2018-02-07T08:31:23Z</time>
      </trkpt>
      <trkpt lat="47.24448" lon="6.02223">
        <ele>269</ele>
        <time>2018-02-07T08:31:28Z</time>
      </trkpt>
      <trkpt lat="47.24444" lon="6.02225">
        <ele>269</ele>
        <time>2018-02-07T08:31:33Z</time>
      </trkpt>
      <trkpt lat="47.24441" lon="6.0223">
        <ele>268.4</ele>
        <time>2018-02-07T08:31:38Z</time>
      </trkpt>
      <trkpt lat="47.24438" lon="6.02235">
        <ele>267.1</ele>
        <time>2018-02-07T08:31:43Z</time>
      </trkpt>
      <trkpt lat="47.24434" lon="6.0224">
        <ele>268.7</ele>
        <time>2018-02-07T08:31:48Z</time>
      </trkpt>
      <trkpt lat="47.24429" lon="6.0224">
        <ele>269.2</ele>
        <time>2018-02-07T08:31:53Z</time>
      </trkpt>
      <trkpt lat="47.24424" lon="6.02241">
        <ele>267.7</ele>
        <time>2018-02-07T08:31:58Z</time>
      </trkpt>
      <trkpt lat="47.24418" lon="6.02242">
        <ele>268.2</ele>
        <time>2018-02-07T08:32:03Z</time>
      </trkpt>
      <trkpt lat="47.24413" lon="6.02244">
        <ele>268.1</ele>
        <time>2018-02-07T08:32:08Z</time>
      </trkpt>
      <trkpt lat="47.24409" lon="6.02246">
        <ele>267.3</ele>
        <time>2018-02-07T08:32:13Z</time>
      </trkpt>
      <trkpt lat="47.24404" lon="6.02247">
        <ele>266.5</ele>
        <time>2018-02-07T08:32:18Z</time>
      </trkpt>
      <trkpt lat="47.244" lon="6.02246">
        <ele>267</ele>
        <time>2018-02-07T08:32:23Z</time>
      </trkpt>
      <trkpt lat="47.24396" lon="6.02246">
        <ele>266.8</ele>
        <time>2018-02-07T08:32:28Z</time>
      </trkpt>
      <trkpt lat="47.24393" lon="6.02247">
        <ele>268.8</ele>
        <time>2018-02-07T08:32:33Z</time>
      </trkpt>
      <trkpt lat="47.24391" lon="6.02251">
        <ele>269</ele>
        <time>2018-02-07T08:32:38Z</time>
      </trkpt>
      <trkpt lat="47.2439" lon="6.02255">
        <ele>267.7</ele>
        <time>2018-02-07T08:32:43Z</time>
      </trkpt>
      <trkpt lat="47.24387" lon="6.02258">
        <ele>267.8</ele>
        <time>2018-02-07T08:32:48Z</time>
      </trkpt>
      <trkpt lat="47.24385" lon="6.02261">
        <ele>267.2</ele>
        <time>2018-02-07T08:32:53Z</time>
      </trkpt>
      <trkpt lat="47.24384" lon="6.02261">
        <ele>267.8</ele>
        <time>2018-02-07T08:32:58Z</time>
      </trkpt>
      <trkpt lat="47.24382" lon="6.02262">
        <ele>267.1</ele>
        <time>2018-02-07T08:33:03Z</time>
      </trkpt>
      <trkpt lat="47.2438" lon="6.02264">
        <ele>267.1</ele>
        <time>2018-02-07T08:33:08Z</time>
      </trkpt>
      <trkpt lat="47.24377" lon="6.02268">
        <ele>265.8</ele>
        <time>2018-02-07T08:33:13Z</time>
      </trkpt>
      <trkpt lat="47.24374" lon="6.02268">
        <ele>265.7</ele>
        <time>2018-02-07T08:33:18Z</time>
      </trkpt>
      <trkpt lat="47.24374" lon="6.02268">
        <ele>265</ele>
        <time>2018-02-07T08:33:23Z</time>
      </trkpt>
      <trkpt lat="47.24373" lon="6.02266">
        <ele>264.8</ele>
        <time>2018-02-07T08:33:28Z</time>
      </trkpt>
      <trkpt lat="47.24372" lon="6.02263">
        <ele>264.6</ele>
        <time>2018-02-07T08:33:33Z</time>
      </trkpt>
      <trkpt lat="47.24371" lon="6.02258">
        <ele>264.3</ele>
        <time>2018-02-07T08:33:38Z</time>
      </trkpt>
      <trkpt lat="47.24372" lon="6.02252">
        <ele>262.6</ele>
        <time>2018-02-07T08:33:43Z</time>
      </trkpt>
      <trkpt lat="47.24372" lon="6.02246">
        <ele>263</ele>
        <time>2018-02-07T08:33:48Z</time>
      </trkpt>
      <trkpt lat="47.2437" lon="6.02241">
        <ele>264.7</ele>
        <time>2018-02-07T08:33:53Z</time>
      </trkpt>
      <trkpt lat="47.2437" lon="6.02241">
        <ele>264.7</ele>
        <time>2018-02-07T08:33:58Z</time>
      </trkpt>
      <trkpt lat="47.2437" lon="6.02241">
        <ele>264</ele>
        <time>2018-02-07T08:34:03Z</time>
      </trkpt>
      <trkpt lat="47.24368" lon="6.02238">
        <ele>264.5</ele>
        <time>2018-02-07T08:34:08Z</time>
      </trkpt>
      <trkpt lat="47.24367" lon="6.02234">
        <ele>264.2</ele>
        <time>2018-02-07T08:34:13Z</time>
      </trkpt>
      <trkpt lat="47.24364" lon="6.02228">
        <ele>263.8</ele>
        <time>2018-02-07T08:34:18Z</time>
      </trkpt>
      <trkpt lat="47.24361" lon="6.02222">
        <ele>265.5</ele>
        <time>2018-02-07T08:34:23Z</time>
      </trkpt>
      <trkpt lat="47.24359" lon="6.02217">
        <ele>266.5</ele>
        <time>2018-02-07T08:34:28Z</time>
      </trkpt>
      <trkpt lat="47.24361" lon="6.02211">
        <ele>267.7</ele>
        <time>2018-02-07T08:34:33Z</time>
      </trkpt>
      <trkpt lat="47.24359" lon="6.02206">
        <ele>269.4</ele>
        <time>2018-02-07T08:34:38Z</time>
      </trkpt>
      <trkpt lat="47.24358" lon="6.02199">
        <ele>273.2</ele>
        <time>2018-02-07T08:34:43Z</time>
      </trkpt>
      <trkpt lat="47.24354" lon="6.02193">
        <ele>276.2</ele>
        <time>2018-02-07T08:34:48Z</time>
      </trkpt>
      <trkpt lat="47.24349" lon="6.02189">
        <ele>275.9</ele>
        <time>2018-02-07T08:34:53Z</time>
      </trkpt>
      <trkpt lat="47.24343" lon="6.02189">
        <ele>272.1</ele>
        <time>2018-02-07T08:34:58Z</time>
      </trkpt>
      <trkpt lat="47.24338" lon="6.02186">
        <ele>271</ele>
        <time>2018-02-07T08:35:03Z</time>
      </trkpt>
      <trkpt lat="47.24334" lon="6.02183">
        <ele>269.2</ele>
        <time>2018-02-07T08:35:08Z</time>
      </trkpt>
      <trkpt lat="47.24331" lon="6.02175">
        <ele>269.4</ele>
        <time>2018-02-07T08:35:13Z</time>
      </trkpt>
      <trkpt lat="47.24327" lon="6.0217">
        <ele>269.6</ele>
        <time>2018-02-07T08:35:18Z</time>
      </trkpt>
      <trkpt lat="47.24323" lon="6.02163">
        <ele>271.2</ele>
        <time>2018-02-07T08:35:23Z</time>
      </trkpt>
      <trkpt lat="47.24322" lon="6.02159">
        <ele>272.3</ele>
        <time>2018-02-07T08:35:28Z</time>
      </trkpt>
      <trkpt lat="47.24321" lon="6.02152">
        <ele>272.7</ele>
        <time>2018-02-07T08:35:33Z</time>
      </trkpt>
      <trkpt lat="47.24319" lon="6.02146">
        <ele>272.2</ele>
        <time>2018-02-07T08:35:38Z</time>
      </trkpt>
      <trkpt lat="47.24312" lon="6.02141">
        <ele>270.9</ele>
        <time>2018-02-07T08:35:43Z</time>
      </trkpt>
      <trkpt lat="47.24308" lon="6.02135">
        <ele>270.4</ele>
        <time>2018-02-07T08:35:48Z</time>
      </trkpt>
      <trkpt lat="47.24301" lon="6.0213">
        <ele>269.2</ele>
        <time>2018-02-07T08:35:53Z</time>
      </trkpt>
      <trkpt lat="47.24294" lon="6.02123">
        <ele>269.2</ele>
        <time>2018-02-07T08:35:58Z</time>
      </trkpt>
      <trkpt lat="47.24287" lon="6.02117">
        <ele>268.6</ele>
        <time>2018-02-07T08:36:03Z</time>
      </trkpt>
      <trkpt lat="47.24281" lon="6.02113">
        <ele>268.1</ele>
        <time>2018-02-07T08:36:08Z</time>
      </trkpt>
      <trkpt lat="47.24273" lon="6.02107">
        <ele>266.7</ele>
        <time>2018-02-07T08:36:13Z</time>
      </trkpt>
      <trkpt lat="47.24264" lon="6.02103">
        <ele>270.4</ele>
        <time>2018-02-07T08:36:18Z</time>
      </trkpt>
      <trkpt lat="47.2426" lon="6.02099">
        <ele>272.1</ele>
        <time>2018-02-07T08:36:23Z</time>
      </trkpt>
      <trkpt lat="47.24258" lon="6.02099">
        <ele>270.6</ele>
        <time>2018-02-07T08:36:28Z</time>
      </trkpt>
      <trkpt lat="47.24254" lon="6.02099">
        <ele>270.5</ele>
        <time>2018-02-07T08:36:33Z</time>
      </trkpt>
      <trkpt lat="47.24252" lon="6.02099">
        <ele>267.6</ele>
        <time>2018-02-07T08:36:38Z</time>
      </trkpt>
      <trkpt lat="47.24248" lon="6.02103">
        <ele>262.7</ele>
        <time>2018-02-07T08:36:43Z</time>
      </trkpt>
      <trkpt lat="47.24244" lon="6.02102">
        <ele>262.4</ele>
        <time>2018-02-07T08:36:48Z</time>
      </trkpt>
      <trkpt lat="47.2424" lon="6.02099">
        <ele>262.1</ele>
        <time>2018-02-07T08:36:53Z</time>
      </trkpt>
      <trkpt lat="47.24237" lon="6.02095">
        <ele>265.3</ele>
        <time>2018-02-07T08:36:58Z</time>
      </trkpt>
      <trkpt lat="47.24235" lon="6.02092">
        <ele>265.8</ele>
        <time>2018-02-07T08:37:03Z</time>
      </trkpt>
      <trkpt lat="47.24233" lon="6.02089">
        <ele>266.3</ele>
        <time>2018-02-07T08:37:08Z</time>
      </trkpt>
      <trkpt lat="47.24229" lon="6.02085">
        <ele>266.6</ele>
        <time>2018-02-07T08:37:13Z</time>
      </trkpt>
      <trkpt lat="47.24226" lon="6.02082">
        <ele>264.8</ele>
        <time>2018-02-07T08:37:18Z</time>
      </trkpt>
      <trkpt lat="47.24222" lon="6.02079">
        <ele>263.1</ele>
        <time>2018-02-07T08:37:23Z</time>
      </trkpt>
      <trkpt lat="47.24218" lon="6.02076">
        <ele>262.1</ele>
        <time>2018-02-07T08:37:28Z</time>
      </trkpt>
      <trkpt lat="47.24215" lon="6.02072">
        <ele>260.3</ele>
        <time>2018-02-07T08:37:33Z</time>
      </trkpt>
      <trkpt lat="47.24213" lon="6.02069">
        <ele>260.1</ele>
        <time>2018-02-07T08:37:38Z</time>
      </trkpt>
      <trkpt lat="47.24207" lon="6.02067">
        <ele>259</ele>
        <time>2018-02-07T08:37:43Z</time>
      </trkpt>
      <trkpt lat="47.24202" lon="6.02067">
        <ele>258.8</ele>
        <time>2018-02-07T08:37:48Z</time>
      </trkpt>
      <trkpt lat="47.24199" lon="6.02065">
        <ele>257.9</ele>
        <time>2018-02-07T08:37:53Z</time>
      </trkpt>
      <trkpt lat="47.24197" lon="6.02064">
        <ele>257.7</ele>
        <time>2018-02-07T08:37:58Z</time>
      </trkpt>
      <trkpt lat="47.24193" lon="6.02061">
        <ele>255.9</ele>
        <time>2018-02-07T08:38:03Z</time>
      </trkpt>
      <trkpt lat="47.24189" lon="6.0206">
        <ele>254.3</ele>
        <time>2018-02-07T08:38:08Z</time>
      </trkpt>
      <trkpt lat="47.24183" lon="6.02061">
        <ele>252.7</ele>
        <time>2018-02-07T08:38:13Z</time>
      </trkpt>
      <trkpt lat="47.24178" lon="6.02061">
        <ele>252.5</ele>
        <time>2018-02-07T08:38:18Z</time>
      </trkpt>
      <trkpt lat="47.24173" lon="6.02059">
        <ele>252.2</ele>
        <time>2018-02-07T08:38:23Z</time>
      </trkpt>
      <trkpt lat="47.2417" lon="6.02058">
        <ele>251.3</ele>
        <time>2018-02-07T08:38:28Z</time>
      </trkpt>
      <trkpt lat="47.24164" lon="6.02059">
        <ele>250.4</ele>
        <time>2018-02-07T08:38:33Z</time>
      </trkpt>
      <trkpt lat="47.24158" lon="6.0206">
        <ele>250.2</ele>
        <time>2018-02-07T08:38:38Z</time>
      </trkpt>
      <trkpt lat="47.24153" lon="6.02058">
        <ele>251.3</ele>
        <time>2018-02-07T08:38:43Z</time>
      </trkpt>
      <trkpt lat="47.24148" lon="6.02057">
        <ele>251.1</ele>
        <time>2018-02-07T08:38:48Z</time>
      </trkpt>
      <trkpt lat="47.24144" lon="6.02057">
        <ele>251.6</ele>
        <time>2018-02-07T08:38:53Z</time>
      </trkpt>
      <trkpt lat="47.24141" lon="6.02056">
        <ele>252.2</ele>
        <time>2018-02-07T08:38:58Z</time>
      </trkpt>
      <trkpt lat="47.24139" lon="6.02052">
        <ele>252.6</ele>
        <time>2018-02-07T08:39:03Z</time>
      </trkpt>
      <trkpt lat="47.24135" lon="6.02049">
        <ele>254.3</ele>
        <time>2018-02-07T08:39:08Z</time>
      </trkpt>
      <trkpt lat="47.24132" lon="6.02047">
        <ele>254.8</ele>
        <time>2018-02-07T08:39:13Z</time>
      </trkpt>
      <trkpt lat="47.24128" lon="6.02045">
        <ele>255.3</ele>
        <time>2018-02-07T08:39:18Z</time>
      </trkpt>
      <trkpt lat="47.24123" lon="6.02043">
        <ele>254.9</ele>
        <time>2018-02-07T08:39:23Z</time>
      </trkpt>
      <trkpt lat="47.24117" lon="6.0204">
        <ele>255.2</ele>
        <time>2018-02-07T08:39:28Z</time>
      </trkpt>
      <trkpt lat="47.24113" lon="6.0204">
        <ele>255.7</ele>
        <time>2018-02-07T08:39:33Z</time>
      </trkpt>
      <trkpt lat="47.24108" lon="6.02039">
        <ele>256.2</ele>
        <time>2018-02-07T08:39:38Z</time>
      </trkpt>
      <trkpt lat="47.24102" lon="6.02037">
        <ele>256.6</ele>
        <time>2018-02-07T08:39:43Z</time>
      </trkpt>
      <trkpt lat="47.24097" lon="6.02035">
        <ele>257</ele>
        <time>2018-02-07T08:39:48Z</time>
      </trkpt>
      <trkpt lat="47.24092" lon="6.02034">
        <ele>258.1</ele>
        <time>2018-02-07T08:39:53Z</time>
      </trkpt>
      <trkpt lat="47.24086" lon="6.02034">
        <ele>258.6</ele>
        <time>2018-02-07T08:39:58Z</time>
      </trkpt>
      <trkpt lat="47.24085" lon="6.02034">
        <ele>257.9</ele>
        <time>2018-02-07T08:40:03Z</time>
      </trkpt>
      <trkpt lat="47.24085" lon="6.02032">
        <ele>258.5</ele>
        <time>2018-02-07T08:40:08Z</time>
      </trkpt>
      <trkpt lat="47.24083" lon="6.02031">
        <ele>257.6</ele>
        <time>2018-02-07T08:40:13Z</time>
      </trkpt>
      <trkpt lat="47.24079" lon="6.02029">
        <ele>257.3</ele>
        <time>2018-02-07T08:40:18Z</time>
      </trkpt>
      <trkpt lat="47.24076" lon="6.02027">
        <ele>256.4</ele>
        <time>2018-02-07T08:40:23Z</time>
      </trkpt>
      <trkpt lat="47.24073" lon="6.02027">
        <ele>255.6</ele>
        <time>2018-02-07T08:40:28Z</time>
      </trkpt>
      <trkpt lat="47.24069" lon="6.02025">
        <ele>254.6</ele>
        <time>2018-02-07T08:40:33Z</time>
      </trkpt>
      <trkpt lat="47.24065" lon="6.02024">
        <ele>254.3</ele>
        <time>2018-02-07T08:40:38Z</time>
      </trkpt>
      <trkpt lat="47.2406" lon="6.0202">
        <ele>255.4</ele>
        <time>2018-02-07T08:40:43Z</time>
      </trkpt>
      <trkpt lat="47.24056" lon="6.02016">
        <ele>255.7</ele>
        <time>2018-02-07T08:40:48Z</time>
      </trkpt>
      <trkpt lat="47.2405" lon="6.02013">
        <ele>255.9</ele>
        <time>2018-02-07T08:40:53Z</time>
      </trkpt>
      <trkpt lat="47.24046" lon="6.02009">
        <ele>256.3</ele>
        <time>2018-02-07T08:40:58Z</time>
      </trkpt>
      <trkpt lat="47.24041" lon="6.02006">
        <ele>255.3</ele>
        <time>2018-02-07T08:41:03Z</time>
      </trkpt>
      <trkpt lat="47.24036" lon="6.02006">
        <ele>255</ele>
        <time>2018-02-07T08:41:08Z</time>
      </trkpt>
      <trkpt lat="47.24032" lon="6.02005">
        <ele>255.5</ele>
        <time>2018-02-07T08:41:13Z</time>
      </trkpt>
      <trkpt lat="47.24028" lon="6.02002">
        <ele>255.9</ele>
        <time>2018-02-07T08:41:18Z</time>
      </trkpt>
      <trkpt lat="47.24024" lon="6.01992">
        <ele>258.7</ele>
        <time>2018-02-07T08:41:23Z</time>
      </trkpt>
      <trkpt lat="47.24017" lon="6.01984">
        <ele>260.1</ele>
        <time>2018-02-07T08:41:28Z</time>
      </trkpt>
      <trkpt lat="47.24011" lon="6.01982">
        <ele>260.5</ele>
        <time>2018-02-07T08:41:33Z</time>
      </trkpt>
      <trkpt lat="47.24008" lon="6.01982">
        <ele>262.5</ele>
        <time>2018-02-07T08:41:38Z</time>
      </trkpt>
      <trkpt lat="47.24007" lon="6.01985">
        <ele>267.6</ele>
        <time>2018-02-07T08:41:43Z</time>
      </trkpt>
      <trkpt lat="47.24004" lon="6.01989">
        <ele>271.9</ele>
        <time>2018-02-07T08:41:48Z</time>
      </trkpt>
      <trkpt lat="47.24001" lon="6.01992">
        <ele>275.5</ele>
        <time>2018-02-07T08:41:53Z</time>
      </trkpt>
      <trkpt lat="47.24002" lon="6.02">
        <ele>270.3</ele>
        <time>2018-02-07T08:41:58Z</time>
      </trkpt>
      <trkpt lat="47.24003" lon="6.02016">
        <ele>257.1</ele>
        <time>2018-02-07T08:42:03Z</time>
      </trkpt>
      <trkpt lat="47.24002" lon="6.02024">
        <ele>254</ele>
        <time>2018-02-07T08:42:09Z</time>
      </trkpt>
      <trkpt lat="47.24001" lon="6.02031">
        <ele>253.6</ele>
        <time>2018-02-07T08:42:14Z</time>
      </trkpt>
      <trkpt lat="47.23999" lon="6.02036">
        <ele>253.1</ele>
        <time>2018-02-07T08:42:19Z</time>
      </trkpt>
      <trkpt lat="47.23995" lon="6.02042">
        <ele>252.6</ele>
        <time>2018-02-07T08:42:24Z</time>
      </trkpt>
      <trkpt lat="47.23993" lon="6.02049">
        <ele>252.1</ele>
        <time>2018-02-07T08:42:29Z</time>
      </trkpt>
      <trkpt lat="47.23991" lon="6.02055">
        <ele>251.7</ele>
        <time>2018-02-07T08:42:34Z</time>
      </trkpt>
      <trkpt lat="47.23988" lon="6.02062">
        <ele>251.9</ele>
        <time>2018-02-07T08:42:39Z</time>
      </trkpt>
      <trkpt lat="47.23986" lon="6.02067">
        <ele>251.4</ele>
        <time>2018-02-07T08:42:44Z</time>
      </trkpt>
      <trkpt lat="47.23982" lon="6.02074">
        <ele>251</ele>
        <time>2018-02-07T08:42:49Z</time>
      </trkpt>
      <trkpt lat="47.23979" lon="6.02081">
        <ele>251.2</ele>
        <time>2018-02-07T08:42:54Z</time>
      </trkpt>
      <trkpt lat="47.23976" lon="6.02086">
        <ele>251.4</ele>
        <time>2018-02-07T08:42:59Z</time>
      </trkpt>
      <trkpt lat="47.23975" lon="6.02091">
        <ele>251.6</ele>
        <time>2018-02-07T08:43:04Z</time>
      </trkpt>
      <trkpt lat="47.23971" lon="6.02098">
        <ele>251.2</ele>
        <time>2018-02-07T08:43:09Z</time>
      </trkpt>
      <trkpt lat="47.23968" lon="6.02102">
        <ele>250.6</ele>
        <time>2018-02-07T08:43:14Z</time>
      </trkpt>
      <trkpt lat="47.23966" lon="6.02106">
        <ele>250</ele>
        <time>2018-02-07T08:43:19Z</time>
      </trkpt>
      <trkpt lat="47.23962" lon="6.02111">
        <ele>249.4</ele>
        <time>2018-02-07T08:43:24Z</time>
      </trkpt>
      <trkpt lat="47.23958" lon="6.02116">
        <ele>249.5</ele>
        <time>2018-02-07T08:43:29Z</time>
      </trkpt>
      <trkpt lat="47.23954" lon="6.02118">
        <ele>250.9</ele>
        <time>2018-02-07T08:43:34Z</time>
      </trkpt>
      <trkpt lat="47.23951" lon="6.02121">
        <ele>253.1</ele>
        <time>2018-02-07T08:43:39Z</time>
      </trkpt>
      <trkpt lat="47.23949" lon="6.02125">
        <ele>254.7</ele>
        <time>2018-02-07T08:43:44Z</time>
      </trkpt>
      <trkpt lat="47.23947" lon="6.02127">
        <ele>255.4</ele>
        <time>2018-02-07T08:43:49Z</time>
      </trkpt>
      <trkpt lat="47.23945" lon="6.02132">
        <ele>256.3</ele>
        <time>2018-02-07T08:43:54Z</time>
      </trkpt>
      <trkpt lat="47.23943" lon="6.02137">
        <ele>257.2</ele>
        <time>2018-02-07T08:43:59Z</time>
      </trkpt>
      <trkpt lat="47.2394" lon="6.02142">
        <ele>258.8</ele>
        <time>2018-02-07T08:44:04Z</time>
      </trkpt>
      <trkpt lat="47.23937" lon="6.02145">
        <ele>258.9</ele>
        <time>2018-02-07T08:44:09Z</time>
      </trkpt>
      <trkpt lat="47.23933" lon="6.02149">
        <ele>260.3</ele>
        <time>2018-02-07T08:44:14Z</time>
      </trkpt>
      <trkpt lat="47.2393" lon="6.02156">
        <ele>261.3</ele>
        <time>2018-02-07T08:44:19Z</time>
      </trkpt>
      <trkpt lat="47.23926" lon="6.02161">
        <ele>261.4</ele>
        <time>2018-02-07T08:44:24Z</time>
      </trkpt>
      <trkpt lat="47.23921" lon="6.02165">
        <ele>262.9</ele>
        <time>2018-02-07T08:44:29Z</time>
      </trkpt>
      <trkpt lat="47.23918" lon="6.02165">
        <ele>263.5</ele>
        <time>2018-02-07T08:44:34Z</time>
      </trkpt>
      <trkpt lat="47.23916" lon="6.02168">
        <ele>263.5</ele>
        <time>2018-02-07T08:44:39Z</time>
      </trkpt>
      <trkpt lat="47.23913" lon="6.02171">
        <ele>265</ele>
        <time>2018-02-07T08:44:44Z</time>
      </trkpt>
      <trkpt lat="47.2391" lon="6.02176">
        <ele>268</ele>
        <time>2018-02-07T08:44:49Z</time>
      </trkpt>
      <trkpt lat="47.23908" lon="6.02181">
        <ele>271.1</ele>
        <time>2018-02-07T08:44:54Z</time>
      </trkpt>
      <trkpt lat="47.23906" lon="6.02182">
        <ele>271.7</ele>
        <time>2018-02-07T08:44:59Z</time>
      </trkpt>
      <trkpt lat="47.23904" lon="6.02181">
        <ele>273.8</ele>
        <time>2018-02-07T08:45:04Z</time>
      </trkpt>
      <trkpt lat="47.239" lon="6.02184">
        <ele>275.1</ele>
        <time>2018-02-07T08:45:09Z</time>
      </trkpt>
      <trkpt lat="47.23896" lon="6.02186">
        <ele>276.5</ele>
        <time>2018-02-07T08:45:14Z</time>
      </trkpt>
      <trkpt lat="47.23893" lon="6.02192">
        <ele>277.4</ele>
        <time>2018-02-07T08:45:19Z</time>
      </trkpt>
      <trkpt lat="47.23889" lon="6.02198">
        <ele>276.9</ele>
        <time>2018-02-07T08:45:24Z</time>
      </trkpt>
      <trkpt lat="47.23885" lon="6.02206">
        <ele>277.2</ele>
        <time>2018-02-07T08:45:29Z</time>
      </trkpt>
      <trkpt lat="47.23885" lon="6.02216">
        <ele>270</ele>
        <time>2018-02-07T08:45:34Z</time>
      </trkpt>
      <trkpt lat="47.23885" lon="6.02223">
        <ele>265.4</ele>
        <time>2018-02-07T08:45:39Z</time>
      </trkpt>
      <trkpt lat="47.23883" lon="6.02226">
        <ele>263.4</ele>
        <time>2018-02-07T08:45:44Z</time>
      </trkpt>
      <trkpt lat="47.23879" lon="6.0223">
        <ele>263.4</ele>
        <time>2018-02-07T08:45:49Z</time>
      </trkpt>
      <trkpt lat="47.23877" lon="6.02234">
        <ele>263.6</ele>
        <time>2018-02-07T08:45:54Z</time>
      </trkpt>
      <trkpt lat="47.23875" lon="6.02239">
        <ele>265.2</ele>
        <time>2018-02-07T08:45:59Z</time>
      </trkpt>
      <trkpt lat="47.23874" lon="6.02241">
        <ele>265.3</ele>
        <time>2018-02-07T08:46:04Z</time>
      </trkpt>
      <trkpt lat="47.23872" lon="6.02246">
        <ele>266.2</ele>
        <time>2018-02-07T08:46:09Z</time>
      </trkpt>
      <trkpt lat="47.23871" lon="6.02247">
        <ele>266.9</ele>
        <time>2018-02-07T08:46:14Z</time>
      </trkpt>
      <trkpt lat="47.23872" lon="6.02246">
        <ele>266.9</ele>
        <time>2018-02-07T08:46:19Z</time>
      </trkpt>
      <trkpt lat="47.23877" lon="6.0224">
        <ele>268.1</ele>
        <time>2018-02-07T08:46:24Z</time>
      </trkpt>
      <trkpt lat="47.23879" lon="6.02234">
        <ele>269.3</ele>
        <time>2018-02-07T08:46:29Z</time>
      </trkpt>
      <trkpt lat="47.23882" lon="6.02229">
        <ele>269.1</ele>
        <time>2018-02-07T08:46:34Z</time>
      </trkpt>
      <trkpt lat="47.23884" lon="6.02223">
        <ele>268.9</ele>
        <time>2018-02-07T08:46:39Z</time>
      </trkpt>
      <trkpt lat="47.23886" lon="6.02228">
        <ele>267.8</ele>
        <time>2018-02-07T08:46:44Z</time>
      </trkpt>
      <trkpt lat="47.23888" lon="6.02234">
        <ele>264.7</ele>
        <time>2018-02-07T08:46:49Z</time>
      </trkpt>
      <trkpt lat="47.2389" lon="6.02241">
        <ele>260.2</ele>
        <time>2018-02-07T08:46:54Z</time>
      </trkpt>
      <trkpt lat="47.23893" lon="6.02246">
        <ele>257.8</ele>
        <time>2018-02-07T08:46:59Z</time>
      </trkpt>
      <trkpt lat="47.23897" lon="6.02248">
        <ele>259.5</ele>
        <time>2018-02-07T08:47:04Z</time>
      </trkpt>
      <trkpt lat="47.239" lon="6.02254">
        <ele>260</ele>
        <time>2018-02-07T08:47:09Z</time>
      </trkpt>
      <trkpt lat="47.23907" lon="6.02267">
        <ele>261.6</ele>
        <time>2018-02-07T08:47:14Z</time>
      </trkpt>
      <trkpt lat="47.2391" lon="6.02276">
        <ele>262.3</ele>
        <time>2018-02-07T08:47:19Z</time>
      </trkpt>
      <trkpt lat="47.23912" lon="6.0228">
        <ele>261.9</ele>
        <time>2018-02-07T08:47:24Z</time>
      </trkpt>
      <trkpt lat="47.23918" lon="6.0228">
        <ele>262.8</ele>
        <time>2018-02-07T08:47:29Z</time>
      </trkpt>
      <trkpt lat="47.23919" lon="6.02284">
        <ele>262.4</ele>
        <time>2018-02-07T08:47:34Z</time>
      </trkpt>
      <trkpt lat="47.2392" lon="6.02291">
        <ele>259.3</ele>
        <time>2018-02-07T08:47:39Z</time>
      </trkpt>
      <trkpt lat="47.23919" lon="6.02297">
        <ele>259.6</ele>
        <time>2018-02-07T08:47:44Z</time>
      </trkpt>
      <trkpt lat="47.23923" lon="6.02308">
        <ele>259</ele>
        <time>2018-02-07T08:47:49Z</time>
      </trkpt>
      <trkpt lat="47.23927" lon="6.02316">
        <ele>258.8</ele>
        <time>2018-02-07T08:47:54Z</time>
      </trkpt>
      <trkpt lat="47.23933" lon="6.02322">
        <ele>258.7</ele>
        <time>2018-02-07T08:47:59Z</time>
      </trkpt>
      <trkpt lat="47.23938" lon="6.02323">
        <ele>261.1</ele>
        <time>2018-02-07T08:48:04Z</time>
      </trkpt>
      <trkpt lat="47.23943" lon="6.02322">
        <ele>262.7</ele>
        <time>2018-02-07T08:48:09Z</time>
      </trkpt>
      <trkpt lat="47.23946" lon="6.02324">
        <ele>263.6</ele>
        <time>2018-02-07T08:48:14Z</time>
      </trkpt>
      <trkpt lat="47.2395" lon="6.02326">
        <ele>266</ele>
        <time>2018-02-07T08:48:19Z</time>
      </trkpt>
      <trkpt lat="47.23956" lon="6.02331">
        <ele>270.8</ele>
        <time>2018-02-07T08:48:24Z</time>
      </trkpt>
      <trkpt lat="47.23961" lon="6.02328">
        <ele>270.8</ele>
        <time>2018-02-07T08:48:29Z</time>
      </trkpt>
      <trkpt lat="47.23967" lon="6.02322">
        <ele>270.7</ele>
        <time>2018-02-07T08:48:34Z</time>
      </trkpt>
      <trkpt lat="47.23971" lon="6.02317">
        <ele>270.6</ele>
        <time>2018-02-07T08:48:39Z</time>
      </trkpt>
      <trkpt lat="47.23974" lon="6.0231">
        <ele>271.8</ele>
        <time>2018-02-07T08:48:44Z</time>
      </trkpt>
      <trkpt lat="47.23976" lon="6.02307">
        <ele>271.7</ele>
        <time>2018-02-07T08:48:49Z</time>
      </trkpt>
      <trkpt lat="47.23981" lon="6.02309">
        <ele>271.3</ele>
        <time>2018-02-07T08:48:54Z</time>
      </trkpt>
      <trkpt lat="47.23986" lon="6.02313">
        <ele>271.7</ele>
        <time>2018-02-07T08:48:59Z</time>
      </trkpt>
      <trkpt lat="47.23989" lon="6.02318">
        <ele>270</ele>
        <time>2018-02-07T08:49:04Z</time>
      </trkpt>
      <trkpt lat="47.23992" lon="6.02322">
        <ele>268.9</ele>
        <time>2018-02-07T08:49:09Z</time>
      </trkpt>
      <trkpt lat="47.23997" lon="6.02327">
        <ele>267.2</ele>
        <time>2018-02-07T08:49:14Z</time>
      </trkpt>
      <trkpt lat="47.24002" lon="6.02329">
        <ele>266.1</ele>
        <time>2018-02-07T08:49:19Z</time>
      </trkpt>
      <trkpt lat="47.24005" lon="6.02333">
        <ele>265.1</ele>
        <time>2018-02-07T08:49:24Z</time>
      </trkpt>
      <trkpt lat="47.24011" lon="6.0234">
        <ele>267.9</ele>
        <time>2018-02-07T08:49:29Z</time>
      </trkpt>
      <trkpt lat="47.24013" lon="6.02351">
        <ele>268.5</ele>
        <time>2018-02-07T08:49:34Z</time>
      </trkpt>
      <trkpt lat="47.24011" lon="6.02365">
        <ele>269.3</ele>
        <time>2018-02-07T08:49:39Z</time>
      </trkpt>
      <trkpt lat="47.24012" lon="6.02371">
        <ele>268.9</ele>
        <time>2018-02-07T08:49:44Z</time>
      </trkpt>
      <trkpt lat="47.24015" lon="6.02377">
        <ele>267.9</ele>
        <time>2018-02-07T08:49:49Z</time>
      </trkpt>
      <trkpt lat="47.24015" lon="6.02377">
        <ele>267.3</ele>
        <time>2018-02-07T08:49:54Z</time>
      </trkpt>
      <trkpt lat="47.24021" lon="6.02369">
        <ele>267.1</ele>
        <time>2018-02-07T08:49:59Z</time>
      </trkpt>
      <trkpt lat="47.24026" lon="6.02363">
        <ele>266.9</ele>
        <time>2018-02-07T08:50:04Z</time>
      </trkpt>
      <trkpt lat="47.24027" lon="6.02362">
        <ele>266.9</ele>
        <time>2018-02-07T08:50:09Z</time>
      </trkpt>
      <trkpt lat="47.2403" lon="6.02357">
        <ele>267.4</ele>
        <time>2018-02-07T08:50:14Z</time>
      </trkpt>
      <trkpt lat="47.24032" lon="6.02356">
        <ele>266.8</ele>
        <time>2018-02-07T08:50:19Z</time>
      </trkpt>
      <trkpt lat="47.24034" lon="6.02352">
        <ele>266.7</ele>
        <time>2018-02-07T08:50:24Z</time>
      </trkpt>
      <trkpt lat="47.24036" lon="6.02349">
        <ele>267.2</ele>
        <time>2018-02-07T08:50:29Z</time>
      </trkpt>
      <trkpt lat="47.24035" lon="6.02351">
        <ele>267.3</ele>
        <time>2018-02-07T08:50:34Z</time>
      </trkpt>
      <trkpt lat="47.24036" lon="6.02352">
        <ele>267.5</ele>
        <time>2018-02-07T08:50:39Z</time>
      </trkpt>
      <trkpt lat="47.24035" lon="6.02351">
        <ele>267.3</ele>
        <time>2018-02-07T08:50:46Z</time>
      </trkpt>
      <trkpt lat="47.24036" lon="6.02354">
        <ele>267.5</ele>
        <time>2018-02-07T08:50:54Z</time>
      </trkpt>
      <trkpt lat="47.24041" lon="6.02353">
        <ele>266.3</ele>
        <time>2018-02-07T08:51:02Z</time>
      </trkpt>
      <trkpt lat="47.24044" lon="6.02353">
        <ele>266.4</ele>
        <time>2018-02-07T08:51:07Z</time>
      </trkpt>
      <trkpt lat="47.24048" lon="6.0235">
        <ele>267.8</ele>
        <time>2018-02-07T08:51:12Z</time>
      </trkpt>
      <trkpt lat="47.24053" lon="6.02345">
        <ele>267</ele>
        <time>2018-02-07T08:51:17Z</time>
      </trkpt>
      <trkpt lat="47.2406" lon="6.02342">
        <ele>269.2</ele>
        <time>2018-02-07T08:51:22Z</time>
      </trkpt>
      <trkpt lat="47.24067" lon="6.0234">
        <ele>268.7</ele>
        <time>2018-02-07T08:51:27Z</time>
      </trkpt>
      <trkpt lat="47.24074" lon="6.02338">
        <ele>271</ele>
        <time>2018-02-07T08:51:32Z</time>
      </trkpt>
      <trkpt lat="47.24076" lon="6.0234">
        <ele>269.8</ele>
        <time>2018-02-07T08:51:37Z</time>
      </trkpt>
      <trkpt lat="47.24085" lon="6.02348">
        <ele>255.7</ele>
        <time>2018-02-07T08:51:42Z</time>
      </trkpt>
      <trkpt lat="47.24089" lon="6.02355">
        <ele>246.3</ele>
        <time>2018-02-07T08:51:47Z</time>
      </trkpt>
      <trkpt lat="47.2409" lon="6.02363">
        <ele>250.3</ele>
        <time>2018-02-07T08:51:52Z</time>
      </trkpt>
      <trkpt lat="47.24094" lon="6.02369">
        <ele>246.6</ele>
        <time>2018-02-07T08:51:57Z</time>
      </trkpt>
      <trkpt lat="47.241" lon="6.02375">
        <ele>247.2</ele>
        <time>2018-02-07T08:52:02Z</time>
      </trkpt>
      <trkpt lat="47.24105" lon="6.02382">
        <ele>252.7</ele>
        <time>2018-02-07T08:52:07Z</time>
      </trkpt>
      <trkpt lat="47.24108" lon="6.02386">
        <ele>253.8</ele>
        <time>2018-02-07T08:52:12Z</time>
      </trkpt>
      <trkpt lat="47.24112" lon="6.02392">
        <ele>253.6</ele>
        <time>2018-02-07T08:52:17Z</time>
      </trkpt>
      <trkpt lat="47.24114" lon="6.02395">
        <ele>252.4</ele>
        <time>2018-02-07T08:52:22Z</time>
      </trkpt>
      <trkpt lat="47.24118" lon="6.02398">
        <ele>252.7</ele>
        <time>2018-02-07T08:52:27Z</time>
      </trkpt>
      <trkpt lat="47.24122" lon="6.02401">
        <ele>252.4</ele>
        <time>2018-02-07T08:52:32Z</time>
      </trkpt>
      <trkpt lat="47.24126" lon="6.02404">
        <ele>252.7</ele>
        <time>2018-02-07T08:52:37Z</time>
      </trkpt>
      <trkpt lat="47.24128" lon="6.02408">
        <ele>253</ele>
        <time>2018-02-07T08:52:42Z</time>
      </trkpt>
      <trkpt lat="47.24132" lon="6.02413">
        <ele>253.4</ele>
        <time>2018-02-07T08:52:47Z</time>
      </trkpt>
      <trkpt lat="47.24135" lon="6.02423">
        <ele>254.8</ele>
        <time>2018-02-07T08:52:52Z</time>
      </trkpt>
      <trkpt lat="47.24137" lon="6.02433">
        <ele>257.6</ele>
        <time>2018-02-07T08:52:57Z</time>
      </trkpt>
      <trkpt lat="47.24139" lon="6.02441">
        <ele>255.3</ele>
        <time>2018-02-07T08:53:02Z</time>
      </trkpt>
      <trkpt lat="47.2414" lon="6.02448">
        <ele>254.3</ele>
        <time>2018-02-07T08:53:07Z</time>
      </trkpt>
      <trkpt lat="47.2414" lon="6.02455">
        <ele>253.3</ele>
        <time>2018-02-07T08:53:12Z</time>
      </trkpt>
      <trkpt lat="47.24139" lon="6.02461">
        <ele>252.2</ele>
        <time>2018-02-07T08:53:17Z</time>
      </trkpt>
      <trkpt lat="47.24136" lon="6.02468">
        <ele>251</ele>
        <time>2018-02-07T08:53:22Z</time>
      </trkpt>
      <trkpt lat="47.24134" lon="6.02474">
        <ele>249.9</ele>
        <time>2018-02-07T08:53:27Z</time>
      </trkpt>
      <trkpt lat="47.24133" lon="6.02479">
        <ele>249.4</ele>
        <time>2018-02-07T08:53:32Z</time>
      </trkpt>
      <trkpt lat="47.24132" lon="6.02485">
        <ele>249</ele>
        <time>2018-02-07T08:53:37Z</time>
      </trkpt>
      <trkpt lat="47.24132" lon="6.02487">
        <ele>249.8</ele>
        <time>2018-02-07T08:53:42Z</time>
      </trkpt>
      <trkpt lat="47.24133" lon="6.0249">
        <ele>250</ele>
        <time>2018-02-07T08:53:47Z</time>
      </trkpt>
      <trkpt lat="47.24135" lon="6.02494">
        <ele>250.3</ele>
        <time>2018-02-07T08:53:52Z</time>
      </trkpt>
      <trkpt lat="47.24136" lon="6.02501">
        <ele>250.8</ele>
        <time>2018-02-07T08:53:57Z</time>
      </trkpt>
      <trkpt lat="47.24136" lon="6.02505">
        <ele>251</ele>
        <time>2018-02-07T08:54:02Z</time>
      </trkpt>
      <trkpt lat="47.24134" lon="6.02513">
        <ele>251.3</ele>
        <time>2018-02-07T08:54:07Z</time>
      </trkpt>
      <trkpt lat="47.2413" lon="6.02524">
        <ele>252.5</ele>
        <time>2018-02-07T08:54:12Z</time>
      </trkpt>
      <trkpt lat="47.2413" lon="6.02533">
        <ele>253</ele>
        <time>2018-02-07T08:54:17Z</time>
      </trkpt>
      <trkpt lat="47.24133" lon="6.02533">
        <ele>255.3</ele>
        <time>2018-02-07T08:54:22Z</time>
      </trkpt>
      <trkpt lat="47.24139" lon="6.02531">
        <ele>257.5</ele>
        <time>2018-02-07T08:54:27Z</time>
      </trkpt>
      <trkpt lat="47.24141" lon="6.02527">
        <ele>258.9</ele>
        <time>2018-02-07T08:54:32Z</time>
      </trkpt>
      <trkpt lat="47.24146" lon="6.02533">
        <ele>260.8</ele>
        <time>2018-02-07T08:54:37Z</time>
      </trkpt>
      <trkpt lat="47.2415" lon="6.02536">
        <ele>262.5</ele>
        <time>2018-02-07T08:54:42Z</time>
      </trkpt>
      <trkpt lat="47.24152" lon="6.02537">
        <ele>262</ele>
        <time>2018-02-07T08:54:47Z</time>
      </trkpt>
      <trkpt lat="47.24155" lon="6.02538">
        <ele>260.7</ele>
        <time>2018-02-07T08:54:52Z</time>
      </trkpt>
      <trkpt lat="47.2416" lon="6.02539">
        <ele>257.4</ele>
        <time>2018-02-07T08:54:57Z</time>
      </trkpt>
      <trkpt lat="47.24164" lon="6.02539">
        <ele>256.2</ele>
        <time>2018-02-07T08:55:02Z</time>
      </trkpt>
      <trkpt lat="47.24169" lon="6.0254">
        <ele>255</ele>
        <time>2018-02-07T08:55:07Z</time>
      </trkpt>
      <trkpt lat="47.24173" lon="6.02541">
        <ele>254.5</ele>
        <time>2018-02-07T08:55:12Z</time>
      </trkpt>
      <trkpt lat="47.24179" lon="6.02544">
        <ele>255.6</ele>
        <time>2018-02-07T08:55:17Z</time>
      </trkpt>
      <trkpt lat="47.24183" lon="6.02544">
        <ele>254.4</ele>
        <time>2018-02-07T08:55:22Z</time>
      </trkpt>
      <trkpt lat="47.24188" lon="6.02546">
        <ele>254.7</ele>
        <time>2018-02-07T08:55:27Z</time>
      </trkpt>
      <trkpt lat="47.24193" lon="6.02547">
        <ele>254.9</ele>
        <time>2018-02-07T08:55:32Z</time>
      </trkpt>
      <trkpt lat="47.24198" lon="6.02549">
        <ele>254.6</ele>
        <time>2018-02-07T08:55:37Z</time>
      </trkpt>
      <trkpt lat="47.24203" lon="6.02551">
        <ele>254.9</ele>
        <time>2018-02-07T08:55:42Z</time>
      </trkpt>
      <trkpt lat="47.2421" lon="6.02551">
        <ele>255.2</ele>
        <time>2018-02-07T08:55:47Z</time>
      </trkpt>
      <trkpt lat="47.24215" lon="6.02553">
        <ele>254.1</ele>
        <time>2018-02-07T08:55:52Z</time>
      </trkpt>
      <trkpt lat="47.24221" lon="6.02555">
        <ele>254.4</ele>
        <time>2018-02-07T08:55:57Z</time>
      </trkpt>
      <trkpt lat="47.24226" lon="6.02556">
        <ele>253.9</ele>
        <time>2018-02-07T08:56:02Z</time>
      </trkpt>
      <trkpt lat="47.24232" lon="6.02558">
        <ele>254.3</ele>
        <time>2018-02-07T08:56:07Z</time>
      </trkpt>
      <trkpt lat="47.24239" lon="6.02559">
        <ele>255.3</ele>
        <time>2018-02-07T08:56:12Z</time>
      </trkpt>
      <trkpt lat="47.24245" lon="6.02561">
        <ele>255.7</ele>
        <time>2018-02-07T08:56:17Z</time>
      </trkpt>
      <trkpt lat="47.24251" lon="6.02563">
        <ele>256.1</ele>
        <time>2018-02-07T08:56:22Z</time>
      </trkpt>
      <trkpt lat="47.24258" lon="6.02565">
        <ele>256.4</ele>
        <time>2018-02-07T08:56:27Z</time>
      </trkpt>
      <trkpt lat="47.24262" lon="6.02565">
        <ele>257.4</ele>
        <time>2018-02-07T08:56:32Z</time>
      </trkpt>
      <trkpt lat="47.24265" lon="6.02564">
        <ele>256.7</ele>
        <time>2018-02-07T08:56:37Z</time>
      </trkpt>
      <trkpt lat="47.24267" lon="6.0256">
        <ele>255.9</ele>
        <time>2018-02-07T08:56:42Z</time>
      </trkpt>
      <trkpt lat="47.24272" lon="6.02554">
        <ele>255.7</ele>
        <time>2018-02-07T08:56:47Z</time>
      </trkpt>
      <trkpt lat="47.24276" lon="6.02551">
        <ele>257.1</ele>
        <time>2018-02-07T08:56:52Z</time>
      </trkpt>
      <trkpt lat="47.24279" lon="6.0255">
        <ele>259.3</ele>
        <time>2018-02-07T08:56:57Z</time>
      </trkpt>
      <trkpt lat="47.24284" lon="6.02554">
        <ele>259.7</ele>
        <time>2018-02-07T08:57:02Z</time>
      </trkpt>
      <trkpt lat="47.24287" lon="6.02558">
        <ele>260.1</ele>
        <time>2018-02-07T08:57:07Z</time>
      </trkpt>
      <trkpt lat="47.24288" lon="6.02558">
        <ele>259.4</ele>
        <time>2018-02-07T08:57:12Z</time>
      </trkpt>
      <trkpt lat="47.24288" lon="6.02558">
        <ele>259.4</ele>
        <time>2018-02-07T08:57:17Z</time>
      </trkpt>
      <trkpt lat="47.24288" lon="6.0256">
        <ele>259.5</ele>
        <time>2018-02-07T08:57:22Z</time>
      </trkpt>
      <trkpt lat="47.24288" lon="6.0256">
        <ele>259.5</ele>
        <time>2018-02-07T08:57:27Z</time>
      </trkpt>
      <trkpt lat="47.24288" lon="6.0256">
        <ele>259.5</ele>
        <time>2018-02-07T08:57:32Z</time>
      </trkpt>
      <trkpt lat="47.24288" lon="6.0256">
        <ele>259.5</ele>
        <time>2018-02-07T08:57:37Z</time>
      </trkpt>
      <trkpt lat="47.24288" lon="6.0256">
        <ele>259.5</ele>
        <time>2018-02-07T08:57:42Z</time>
      </trkpt>
      <trkpt lat="47.24288" lon="6.0256">
        <ele>259.5</ele>
        <time>2018-02-07T08:57:47Z</time>
      </trkpt>
      <trkpt lat="47.24288" lon="6.0256">
        <ele>259.5</ele>
        <time>2018-02-07T08:57:52Z</time>
      </trkpt>
      <trkpt lat="47.24288" lon="6.0256">
        <ele>259.5</ele>
        <time>2018-02-07T08:57:57Z</time>
      </trkpt>
      <trkpt lat="47.24288" lon="6.02561">
        <ele>259.6</ele>
        <time>2018-02-07T08:58:02Z</time>
      </trkpt>
      <trkpt lat="47.24288" lon="6.02561">
        <ele>259.6</ele>
        <time>2018-02-07T08:58:07Z</time>
      </trkpt>
      <trkpt lat="47.24289" lon="6.02562">
        <ele>261.1</ele>
        <time>2018-02-07T08:58:12Z</time>
      </trkpt>
      <trkpt lat="47.24292" lon="6.02565">
        <ele>261.4</ele>
        <time>2018-02-07T08:58:17Z</time>
      </trkpt>
      <trkpt lat="47.24295" lon="6.02567">
        <ele>261.6</ele>
        <time>2018-02-07T08:58:22Z</time>
      </trkpt>
      <trkpt lat="47.24297" lon="6.02567">
        <ele>261</ele>
        <time>2018-02-07T08:58:27Z</time>
      </trkpt>
      <trkpt lat="47.24299" lon="6.02566">
        <ele>261.1</ele>
        <time>2018-02-07T08:58:32Z</time>
      </trkpt>
      <trkpt lat="47.24301" lon="6.02563">
        <ele>260.9</ele>
        <time>2018-02-07T08:58:37Z</time>
      </trkpt>
      <trkpt lat="47.24304" lon="6.02558">
        <ele>259.3</ele>
        <time>2018-02-07T08:58:42Z</time>
      </trkpt>
      <trkpt lat="47.24308" lon="6.02553">
        <ele>259.2</ele>
        <time>2018-02-07T08:58:47Z</time>
      </trkpt>
      <trkpt lat="47.2431" lon="6.02549">
        <ele>258.4</ele>
        <time>2018-02-07T08:58:52Z</time>
      </trkpt>
      <trkpt lat="47.24312" lon="6.02548">
        <ele>260.5</ele>
        <time>2018-02-07T08:58:57Z</time>
      </trkpt>
      <trkpt lat="47.24318" lon="6.02542">
        <ele>261.1</ele>
        <time>2018-02-07T08:59:02Z</time>
      </trkpt>
      <trkpt lat="47.24325" lon="6.02533">
        <ele>261.7</ele>
        <time>2018-02-07T08:59:07Z</time>
      </trkpt>
      <trkpt lat="47.2433" lon="6.02526">
        <ele>262.8</ele>
        <time>2018-02-07T08:59:12Z</time>
      </trkpt>
      <trkpt lat="47.24334" lon="6.0252">
        <ele>262.7</ele>
        <time>2018-02-07T08:59:17Z</time>
      </trkpt>
      <trkpt lat="47.24337" lon="6.02513">
        <ele>262.4</ele>
        <time>2018-02-07T08:59:22Z</time>
      </trkpt>
      <trkpt lat="47.24337" lon="6.02505">
        <ele>264.8</ele>
        <time>2018-02-07T08:59:27Z</time>
      </trkpt>
      <trkpt lat="47.2434" lon="6.025">
        <ele>266</ele>
        <time>2018-02-07T08:59:32Z</time>
      </trkpt>
      <trkpt lat="47.24343" lon="6.02494">
        <ele>267.2</ele>
        <time>2018-02-07T08:59:37Z</time>
      </trkpt>
      <trkpt lat="47.24345" lon="6.02488">
        <ele>268.5</ele>
        <time>2018-02-07T08:59:42Z</time>
      </trkpt>
      <trkpt lat="47.24349" lon="6.02483">
        <ele>270.4</ele>
        <time>2018-02-07T08:59:47Z</time>
      </trkpt>
      <trkpt lat="47.24352" lon="6.02479">
        <ele>269.6</ele>
        <time>2018-02-07T08:59:52Z</time>
      </trkpt>
      <trkpt lat="47.24358" lon="6.02474">
        <ele>271.7</ele>
        <time>2018-02-07T08:59:57Z</time>
      </trkpt>
      <trkpt lat="47.24365" lon="6.02469">
        <ele>273.8</ele>
        <time>2018-02-07T09:00:02Z</time>
      </trkpt>
      <trkpt lat="47.24372" lon="6.02467">
        <ele>273.3</ele>
        <time>2018-02-07T09:00:07Z</time>
      </trkpt>
      <trkpt lat="47.2438" lon="6.02468">
        <ele>269.5</ele>
        <time>2018-02-07T09:00:12Z</time>
      </trkpt>
      <trkpt lat="47.24386" lon="6.02469">
        <ele>266.2</ele>
        <time>2018-02-07T09:00:17Z</time>
      </trkpt>
      <trkpt lat="47.2439" lon="6.02469">
        <ele>264.9</ele>
        <time>2018-02-07T09:00:22Z</time>
      </trkpt>
      <trkpt lat="47.24394" lon="6.02471">
        <ele>262.3</ele>
        <time>2018-02-07T09:00:27Z</time>
      </trkpt>
      <trkpt lat="47.24398" lon="6.02472">
        <ele>263.3</ele>
        <time>2018-02-07T09:00:32Z</time>
      </trkpt>
      <trkpt lat="47.24401" lon="6.02474">
        <ele>265.6</ele>
        <time>2018-02-07T09:00:37Z</time>
      </trkpt>
      <trkpt lat="47.24406" lon="6.02474">
        <ele>270.1</ele>
        <time>2018-02-07T09:00:42Z</time>
      </trkpt>
      <trkpt lat="47.24409" lon="6.0247">
        <ele>270</ele>
        <time>2018-02-07T09:00:47Z</time>
      </trkpt>
      <trkpt lat="47.24412" lon="6.02469">
        <ele>269.4</ele>
        <time>2018-02-07T09:00:52Z</time>
      </trkpt>
      <trkpt lat="47.24416" lon="6.0247">
        <ele>268.1</ele>
        <time>2018-02-07T09:00:57Z</time>
      </trkpt>
      <trkpt lat="47.24419" lon="6.0247">
        <ele>267.6</ele>
        <time>2018-02-07T09:01:02Z</time>
      </trkpt>
      <trkpt lat="47.24422" lon="6.02471">
        <ele>267</ele>
        <time>2018-02-07T09:01:07Z</time>
      </trkpt>
      <trkpt lat="47.24425" lon="6.0247">
        <ele>265.7</ele>
        <time>2018-02-07T09:01:12Z</time>
      </trkpt>
      <trkpt lat="47.24429" lon="6.02469">
        <ele>265.1</ele>
        <time>2018-02-07T09:01:17Z</time>
      </trkpt>
      <trkpt lat="47.24436" lon="6.0247">
        <ele>264</ele>
        <time>2018-02-07T09:01:22Z</time>
      </trkpt>
      <trkpt lat="47.24442" lon="6.02471">
        <ele>262.9</ele>
        <time>2018-02-07T09:01:27Z</time>
      </trkpt>
      <trkpt lat="47.24447" lon="6.0247">
        <ele>260.9</ele>
        <time>2018-02-07T09:01:32Z</time>
      </trkpt>
      <trkpt lat="47.24452" lon="6.02471">
        <ele>260.5</ele>
        <time>2018-02-07T09:01:37Z</time>
      </trkpt>
      <trkpt lat="47.24456" lon="6.0247">
        <ele>260.6</ele>
        <time>2018-02-07T09:01:42Z</time>
      </trkpt>
      <trkpt lat="47.24461" lon="6.02471">
        <ele>260.1</ele>
        <time>2018-02-07T09:01:47Z</time>
      </trkpt>
      <trkpt lat="47.24465" lon="6.02471">
        <ele>259.6</ele>
        <time>2018-02-07T09:01:52Z</time>
      </trkpt>
      <trkpt lat="47.24471" lon="6.02473">
        <ele>259.9</ele>
        <time>2018-02-07T09:01:57Z</time>
      </trkpt>
      <trkpt lat="47.24477" lon="6.02474">
        <ele>258.8</ele>
        <time>2018-02-07T09:02:02Z</time>
      </trkpt>
      <trkpt lat="47.24482" lon="6.02474">
        <ele>259.7</ele>
        <time>2018-02-07T09:02:07Z</time>
      </trkpt>
      <trkpt lat="47.24486" lon="6.02473">
        <ele>259.8</ele>
        <time>2018-02-07T09:02:12Z</time>
      </trkpt>
      <trkpt lat="47.24488" lon="6.02467">
        <ele>258.1</ele>
        <time>2018-02-07T09:02:17Z</time>
      </trkpt>
      <trkpt lat="47.24489" lon="6.02459">
        <ele>257</ele>
        <time>2018-02-07T09:02:22Z</time>
      </trkpt>
      <trkpt lat="47.24491" lon="6.02454">
        <ele>257.5</ele>
        <time>2018-02-07T09:02:27Z</time>
      </trkpt>
      <trkpt lat="47.24495" lon="6.02449">
        <ele>257.4</ele>
        <time>2018-02-07T09:02:32Z</time>
      </trkpt>
      <trkpt lat="47.24498" lon="6.02446">
        <ele>257.3</ele>
        <time>2018-02-07T09:02:37Z</time>
      </trkpt>
      <trkpt lat="47.245" lon="6.02443">
        <ele>258</ele>
        <time>2018-02-07T09:02:42Z</time>
      </trkpt>
      <trkpt lat="47.24502" lon="6.02442">
        <ele>259.4</ele>
        <time>2018-02-07T09:02:47Z</time>
      </trkpt>
      <trkpt lat="47.24506" lon="6.0244">
        <ele>261.6</ele>
        <time>2018-02-07T09:02:52Z</time>
      </trkpt>
      <trkpt lat="47.24508" lon="6.02438">
        <ele>263</ele>
        <time>2018-02-07T09:02:57Z</time>
      </trkpt>
      <trkpt lat="47.24508" lon="6.02438">
        <ele>263</ele>
        <time>2018-02-07T09:03:02Z</time>
      </trkpt>
      <trkpt lat="47.24508" lon="6.02438">
        <ele>264.4</ele>
        <time>2018-02-07T09:03:07Z</time>
      </trkpt>
      <trkpt lat="47.24508" lon="6.02438">
        <ele>264.4</ele>
        <time>2018-02-07T09:03:12Z</time>
      </trkpt>
      <trkpt lat="47.24508" lon="6.02438">
        <ele>264.4</ele>
        <time>2018-02-07T09:03:17Z</time>
      </trkpt>
      <trkpt lat="47.24508" lon="6.02438">
        <ele>264.4</ele>
        <time>2018-02-07T09:03:22Z</time>
      </trkpt>
      <trkpt lat="47.24508" lon="6.02437">
        <ele>265</ele>
        <time>2018-02-07T09:03:27Z</time>
      </trkpt>
      <trkpt lat="47.24507" lon="6.02435">
        <ele>265.6</ele>
        <time>2018-02-07T09:03:32Z</time>
      </trkpt>
      <trkpt lat="47.24507" lon="6.02435">
        <ele>265.6</ele>
        <time>2018-02-07T09:03:37Z</time>
      </trkpt>
      <trkpt lat="47.24508" lon="6.02435">
        <ele>266.4</ele>
        <time>2018-02-07T09:03:42Z</time>
      </trkpt>
      <trkpt lat="47.24508" lon="6.02437">
        <ele>267.2</ele>
        <time>2018-02-07T09:03:47Z</time>
      </trkpt>
      <trkpt lat="47.24509" lon="6.02438">
        <ele>266.6</ele>
        <time>2018-02-07T09:03:52Z</time>
      </trkpt>
      <trkpt lat="47.24507" lon="6.02441">
        <ele>268.1</ele>
        <time>2018-02-07T09:03:57Z</time>
      </trkpt>
      <trkpt lat="47.24506" lon="6.02443">
        <ele>271</ele>
        <time>2018-02-07T09:04:02Z</time>
      </trkpt>
      <trkpt lat="47.24505" lon="6.02444">
        <ele>271.7</ele>
        <time>2018-02-07T09:04:07Z</time>
      </trkpt>
      <trkpt lat="47.24503" lon="6.02449">
        <ele>271.2</ele>
        <time>2018-02-07T09:04:12Z</time>
      </trkpt>
      <trkpt lat="47.245" lon="6.02453">
        <ele>268.5</ele>
        <time>2018-02-07T09:04:17Z</time>
      </trkpt>
      <trkpt lat="47.24498" lon="6.02454">
        <ele>265.6</ele>
        <time>2018-02-07T09:04:22Z</time>
      </trkpt>
      <trkpt lat="47.24495" lon="6.0246">
        <ele>263</ele>
        <time>2018-02-07T09:04:27Z</time>
      </trkpt>
      <trkpt lat="47.24492" lon="6.02466">
        <ele>260.4</ele>
        <time>2018-02-07T09:04:32Z</time>
      </trkpt>
      <trkpt lat="47.2449" lon="6.02473">
        <ele>258.5</ele>
        <time>2018-02-07T09:04:37Z</time>
      </trkpt>
      <trkpt lat="47.2449" lon="6.02479">
        <ele>257.5</ele>
        <time>2018-02-07T09:04:42Z</time>
      </trkpt>
      <trkpt lat="47.24492" lon="6.02485">
        <ele>257.9</ele>
        <time>2018-02-07T09:04:47Z</time>
      </trkpt>
      <trkpt lat="47.24493" lon="6.02489">
        <ele>258.2</ele>
        <time>2018-02-07T09:04:52Z</time>
      </trkpt>
      <trkpt lat="47.24494" lon="6.02492">
        <ele>257.6</ele>
        <time>2018-02-07T09:04:57Z</time>
      </trkpt>
      <trkpt lat="47.24493" lon="6.02494">
        <ele>257</ele>
        <time>2018-02-07T09:05:02Z</time>
      </trkpt>
      <trkpt lat="47.24493" lon="6.02497">
        <ele>256.5</ele>
        <time>2018-02-07T09:05:07Z</time>
      </trkpt>
      <trkpt lat="47.24493" lon="6.02501">
        <ele>256</ele>
        <time>2018-02-07T09:05:12Z</time>
      </trkpt>
      <trkpt lat="47.24491" lon="6.02509">
        <ele>254.9</ele>
        <time>2018-02-07T09:05:17Z</time>
      </trkpt>
      <trkpt lat="47.24491" lon="6.02514">
        <ele>256.6</ele>
        <time>2018-02-07T09:05:22Z</time>
      </trkpt>
      <trkpt lat="47.24491" lon="6.02517">
        <ele>256.1</ele>
        <time>2018-02-07T09:05:27Z</time>
      </trkpt>
      <trkpt lat="47.24492" lon="6.02518">
        <ele>256.9</ele>
        <time>2018-02-07T09:05:32Z</time>
      </trkpt>
      <trkpt lat="47.24492" lon="6.0252">
        <ele>257.7</ele>
        <time>2018-02-07T09:05:37Z</time>
      </trkpt>
      <trkpt lat="47.24493" lon="6.02522">
        <ele>258.6</ele>
        <time>2018-02-07T09:05:42Z</time>
      </trkpt>
      <trkpt lat="47.24494" lon="6.02523">
        <ele>260.1</ele>
        <time>2018-02-07T09:05:47Z</time>
      </trkpt>
      <trkpt lat="47.24495" lon="6.02522">
        <ele>260.1</ele>
        <time>2018-02-07T09:05:52Z</time>
      </trkpt>
      <trkpt lat="47.24495" lon="6.02522">
        <ele>261.5</ele>
        <time>2018-02-07T09:05:57Z</time>
      </trkpt>
      <trkpt lat="47.24495" lon="6.02522">
        <ele>261.5</ele>
        <time>2018-02-07T09:06:02Z</time>
      </trkpt>
      <trkpt lat="47.24496" lon="6.02523">
        <ele>262.3</ele>
        <time>2018-02-07T09:06:07Z</time>
      </trkpt>
      <trkpt lat="47.24496" lon="6.02523">
        <ele>262.3</ele>
        <time>2018-02-07T09:06:12Z</time>
      </trkpt>
      <trkpt lat="47.24496" lon="6.02523">
        <ele>262.3</ele>
        <time>2018-02-07T09:06:17Z</time>
      </trkpt>
      <trkpt lat="47.24496" lon="6.02523">
        <ele>262.3</ele>
        <time>2018-02-07T09:06:22Z</time>
      </trkpt>
      <trkpt lat="47.24496" lon="6.02523">
        <ele>262.3</ele>
        <time>2018-02-07T09:06:27Z</time>
      </trkpt>
      <trkpt lat="47.24496" lon="6.02523">
        <ele>262.3</ele>
        <time>2018-02-07T09:06:32Z</time>
      </trkpt>
      <trkpt lat="47.24496" lon="6.02525">
        <ele>262.4</ele>
        <time>2018-02-07T09:06:37Z</time>
      </trkpt>
      <trkpt lat="47.24496" lon="6.02525">
        <ele>262.4</ele>
        <time>2018-02-07T09:06:42Z</time>
      </trkpt>
      <trkpt lat="47.24496" lon="6.02525">
        <ele>262.4</ele>
        <time>2018-02-07T09:06:47Z</time>
      </trkpt>
      <trkpt lat="47.24496" lon="6.02525">
        <ele>262.4</ele>
        <time>2018-02-07T09:06:52Z</time>
      </trkpt>
      <trkpt lat="47.24496" lon="6.02525">
        <ele>262.4</ele>
        <time>2018-02-07T09:06:57Z</time>
      </trkpt>
      <trkpt lat="47.24496" lon="6.02526">
        <ele>263.2</ele>
        <time>2018-02-07T09:07:02Z</time>
      </trkpt>
      <trkpt lat="47.24496" lon="6.02526">
        <ele>263.2</ele>
        <time>2018-02-07T09:07:07Z</time>
      </trkpt>
      <trkpt lat="47.24496" lon="6.02526">
        <ele>263.2</ele>
        <time>2018-02-07T09:07:12Z</time>
      </trkpt>
      <trkpt lat="47.24496" lon="6.02526">
        <ele>263.2</ele>
        <time>2018-02-07T09:07:17Z</time>
      </trkpt>
      <trkpt lat="47.24496" lon="6.02526">
        <ele>263.2</ele>
        <time>2018-02-07T09:07:22Z</time>
      </trkpt>
      <trkpt lat="47.24496" lon="6.02526">
        <ele>263.2</ele>
        <time>2018-02-07T09:07:27Z</time>
      </trkpt>
      <trkpt lat="47.24496" lon="6.02526">
        <ele>263.2</ele>
        <time>2018-02-07T09:07:32Z</time>
      </trkpt>
      <trkpt lat="47.24496" lon="6.02526">
        <ele>263.2</ele>
        <time>2018-02-07T09:07:37Z</time>
      </trkpt>
      <trkpt lat="47.24496" lon="6.02526">
        <ele>263.2</ele>
        <time>2018-02-07T09:07:42Z</time>
      </trkpt>
      <trkpt lat="47.24496" lon="6.02526">
        <ele>263.2</ele>
        <time>2018-02-07T09:07:47Z</time>
      </trkpt>
      <trkpt lat="47.24496" lon="6.02526">
        <ele>263.2</ele>
        <time>2018-02-07T09:07:52Z</time>
      </trkpt>
      <trkpt lat="47.24496" lon="6.02526">
        <ele>263.2</ele>
        <time>2018-02-07T09:07:57Z</time>
      </trkpt>
      <trkpt lat="47.24496" lon="6.02525">
        <ele>263.1</ele>
        <time>2018-02-07T09:08:02Z</time>
      </trkpt>
      <trkpt lat="47.24496" lon="6.02525">
        <ele>263.1</ele>
        <time>2018-02-07T09:08:07Z</time>
      </trkpt>
      <trkpt lat="47.24497" lon="6.02525">
        <ele>263.2</ele>
        <time>2018-02-07T09:08:12Z</time>
      </trkpt>
      <trkpt lat="47.24497" lon="6.02525">
        <ele>263.2</ele>
        <time>2018-02-07T09:08:17Z</time>
      </trkpt>
      <trkpt lat="47.24498" lon="6.02524">
        <ele>263.1</ele>
        <time>2018-02-07T09:08:22Z</time>
      </trkpt>
      <trkpt lat="47.24499" lon="6.02521">
        <ele>263</ele>
        <time>2018-02-07T09:08:27Z</time>
      </trkpt>
      <trkpt lat="47.24501" lon="6.02516">
        <ele>263.6</ele>
        <time>2018-02-07T09:08:32Z</time>
      </trkpt>
      <trkpt lat="47.24504" lon="6.02511">
        <ele>263.4</ele>
        <time>2018-02-07T09:08:37Z</time>
      </trkpt>
      <trkpt lat="47.24506" lon="6.02509">
        <ele>262.6</ele>
        <time>2018-02-07T09:08:42Z</time>
      </trkpt>
      <trkpt lat="47.24508" lon="6.02504">
        <ele>263.1</ele>
        <time>2018-02-07T09:08:47Z</time>
      </trkpt>
      <trkpt lat="47.24512" lon="6.025">
        <ele>263.1</ele>
        <time>2018-02-07T09:08:52Z</time>
      </trkpt>
      <trkpt lat="47.24515" lon="6.02495">
        <ele>262.9</ele>
        <time>2018-02-07T09:08:57Z</time>
      </trkpt>
      <trkpt lat="47.24517" lon="6.02491">
        <ele>263.5</ele>
        <time>2018-02-07T09:09:02Z</time>
      </trkpt>
      <trkpt lat="47.24521" lon="6.02489">
        <ele>263.5</ele>
        <time>2018-02-07T09:09:07Z</time>
      </trkpt>
      <trkpt lat="47.24525" lon="6.02486">
        <ele>262.1</ele>
        <time>2018-02-07T09:09:12Z</time>
      </trkpt>
      <trkpt lat="47.24528" lon="6.02481">
        <ele>263.3</ele>
        <time>2018-02-07T09:09:17Z</time>
      </trkpt>
      <trkpt lat="47.24531" lon="6.02475">
        <ele>264.6</ele>
        <time>2018-02-07T09:09:22Z</time>
      </trkpt>
      <trkpt lat="47.24533" lon="6.02468">
        <ele>265</ele>
        <time>2018-02-07T09:09:27Z</time>
      </trkpt>
      <trkpt lat="47.24534" lon="6.02461">
        <ele>264.7</ele>
        <time>2018-02-07T09:09:32Z</time>
      </trkpt>
      <trkpt lat="47.24536" lon="6.02455">
        <ele>265.8</ele>
        <time>2018-02-07T09:09:37Z</time>
      </trkpt>
      <trkpt lat="47.24538" lon="6.02449">
        <ele>267.7</ele>
        <time>2018-02-07T09:09:42Z</time>
      </trkpt>
      <trkpt lat="47.24541" lon="6.02446">
        <ele>267.6</ele>
        <time>2018-02-07T09:09:47Z</time>
      </trkpt>
      <trkpt lat="47.24544" lon="6.02442">
        <ele>269.6</ele>
        <time>2018-02-07T09:09:53Z</time>
      </trkpt>
      <trkpt lat="47.24545" lon="6.02441">
        <ele>271</ele>
        <time>2018-02-07T09:09:58Z</time>
      </trkpt>
      <trkpt lat="47.24546" lon="6.02438">
        <ele>271.6</ele>
        <time>2018-02-07T09:10:03Z</time>
      </trkpt>
      <trkpt lat="47.24548" lon="6.02436">
        <ele>272.3</ele>
        <time>2018-02-07T09:10:08Z</time>
      </trkpt>
      <trkpt lat="47.24551" lon="6.02432">
        <ele>272.2</ele>
        <time>2018-02-07T09:10:13Z</time>
      </trkpt>
      <trkpt lat="47.24552" lon="6.02429">
        <ele>272.1</ele>
        <time>2018-02-07T09:10:18Z</time>
      </trkpt>
      <trkpt lat="47.24552" lon="6.02428">
        <ele>272</ele>
        <time>2018-02-07T09:10:24Z</time>
      </trkpt>
      <trkpt lat="47.24553" lon="6.02428">
        <ele>271.4</ele>
        <time>2018-02-07T09:10:29Z</time>
      </trkpt>
      <trkpt lat="47.24552" lon="6.0243">
        <ele>270.7</ele>
        <time>2018-02-07T09:10:34Z</time>
      </trkpt>
      <trkpt lat="47.24552" lon="6.0243">
        <ele>270.7</ele>
        <time>2018-02-07T09:10:39Z</time>
      </trkpt>
      <trkpt lat="47.24553" lon="6.0243">
        <ele>270</ele>
        <time>2018-02-07T09:10:44Z</time>
      </trkpt>
      <trkpt lat="47.24555" lon="6.02433">
        <ele>268.1</ele>
        <time>2018-02-07T09:10:49Z</time>
      </trkpt>
      <trkpt lat="47.24555" lon="6.02435">
        <ele>267.6</ele>
        <time>2018-02-07T09:10:54Z</time>
      </trkpt>
      <trkpt lat="47.24557" lon="6.02438">
        <ele>267.8</ele>
        <time>2018-02-07T09:10:59Z</time>
      </trkpt>
      <trkpt lat="47.24558" lon="6.02441">
        <ele>267.3</ele>
        <time>2018-02-07T09:11:04Z</time>
      </trkpt>
      <trkpt lat="47.24561" lon="6.02444">
        <ele>268.3</ele>
        <time>2018-02-07T09:11:09Z</time>
      </trkpt>
      <trkpt lat="47.24563" lon="6.02445">
        <ele>268.5</ele>
        <time>2018-02-07T09:11:14Z</time>
      </trkpt>
      <trkpt lat="47.24566" lon="6.02446">
        <ele>268.6</ele>
        <time>2018-02-07T09:11:19Z</time>
      </trkpt>
      <trkpt lat="47.24568" lon="6.02445">
        <ele>269.4</ele>
        <time>2018-02-07T09:11:24Z</time>
      </trkpt>
      <trkpt lat="47.24568" lon="6.02442">
        <ele>269.2</ele>
        <time>2018-02-07T09:11:29Z</time>
      </trkpt>
      <trkpt lat="47.24566" lon="6.02437">
        <ele>268.1</ele>
        <time>2018-02-07T09:11:34Z</time>
      </trkpt>
      <trkpt lat="47.24565" lon="6.02435">
        <ele>268.7</ele>
        <time>2018-02-07T09:11:39Z</time>
      </trkpt>
      <trkpt lat="47.24565" lon="6.02435">
        <ele>268.7</ele>
        <time>2018-02-07T09:11:44Z</time>
      </trkpt>
      <trkpt lat="47.24565" lon="6.02435">
        <ele>268.7</ele>
        <time>2018-02-07T09:11:49Z</time>
      </trkpt>
      <trkpt lat="47.24565" lon="6.02435">
        <ele>268.7</ele>
        <time>2018-02-07T09:11:54Z</time>
      </trkpt>
      <trkpt lat="47.24565" lon="6.02435">
        <ele>268.7</ele>
        <time>2018-02-07T09:11:59Z</time>
      </trkpt>
      <trkpt lat="47.24565" lon="6.02435">
        <ele>268.7</ele>
        <time>2018-02-07T09:12:04Z</time>
      </trkpt>
      <trkpt lat="47.24564" lon="6.02435">
        <ele>269.4</ele>
        <time>2018-02-07T09:12:09Z</time>
      </trkpt>
      <trkpt lat="47.24564" lon="6.02434">
        <ele>269.3</ele>
        <time>2018-02-07T09:12:14Z</time>
      </trkpt>
      <trkpt lat="47.24564" lon="6.02434">
        <ele>269.3</ele>
        <time>2018-02-07T09:12:19Z</time>
      </trkpt>
      <trkpt lat="47.24565" lon="6.02434">
        <ele>270</ele>
        <time>2018-02-07T09:12:24Z</time>
      </trkpt>
      <trkpt lat="47.24564" lon="6.02434">
        <ele>270.7</ele>
        <time>2018-02-07T09:12:29Z</time>
      </trkpt>
      <trkpt lat="47.24564" lon="6.02431">
        <ele>273.4</ele>
        <time>2018-02-07T09:12:34Z</time>
      </trkpt>
      <trkpt lat="47.24564" lon="6.02428">
        <ele>276</ele>
        <time>2018-02-07T09:12:39Z</time>
      </trkpt>
      <trkpt lat="47.24569" lon="6.02424">
        <ele>275.3</ele>
        <time>2018-02-07T09:12:44Z</time>
      </trkpt>
      <trkpt lat="47.24573" lon="6.02422">
        <ele>275.4</ele>
        <time>2018-02-07T09:12:49Z</time>
      </trkpt>
      <trkpt lat="47.24578" lon="6.02423">
        <ele>274.2</ele>
        <time>2018-02-07T09:12:54Z</time>
      </trkpt>
      <trkpt lat="47.24583" lon="6.02423">
        <ele>274.4</ele>
        <time>2018-02-07T09:12:59Z</time>
      </trkpt>
      <trkpt lat="47.24586" lon="6.02421">
        <ele>274.4</ele>
        <time>2018-02-07T09:13:04Z</time>
      </trkpt>
      <trkpt lat="47.2459" lon="6.02419">
        <ele>274.4</ele>
        <time>2018-02-07T09:13:09Z</time>
      </trkpt>
      <trkpt lat="47.24592" lon="6.02413">
        <ele>272.7</ele>
        <time>2018-02-07T09:13:14Z</time>
      </trkpt>
      <trkpt lat="47.24592" lon="6.02404">
        <ele>273.7</ele>
        <time>2018-02-07T09:13:19Z</time>
      </trkpt>
      <trkpt lat="47.24593" lon="6.02397">
        <ele>274</ele>
        <time>2018-02-07T09:13:24Z</time>
      </trkpt>
      <trkpt lat="47.24594" lon="6.0239">
        <ele>275.1</ele>
        <time>2018-02-07T09:13:29Z</time>
      </trkpt>
      <trkpt lat="47.24597" lon="6.02384">
        <ele>276.3</ele>
        <time>2018-02-07T09:13:34Z</time>
      </trkpt>
      <trkpt lat="47.246" lon="6.02377">
        <ele>277.5</ele>
        <time>2018-02-07T09:13:39Z</time>
      </trkpt>
      <trkpt lat="47.246" lon="6.02376">
        <ele>278.8</ele>
        <time>2018-02-07T09:13:44Z</time>
      </trkpt>
      <trkpt lat="47.246" lon="6.02373">
        <ele>281.5</ele>
        <time>2018-02-07T09:13:49Z</time>
      </trkpt>
      <trkpt lat="47.246" lon="6.02373">
        <ele>282.9</ele>
        <time>2018-02-07T09:13:54Z</time>
      </trkpt>
      <trkpt lat="47.24602" lon="6.02368">
        <ele>283.4</ele>
        <time>2018-02-07T09:13:59Z</time>
      </trkpt>
      <trkpt lat="47.24605" lon="6.02361">
        <ele>283.2</ele>
        <time>2018-02-07T09:14:04Z</time>
      </trkpt>
      <trkpt lat="47.24608" lon="6.02355">
        <ele>284.3</ele>
        <time>2018-02-07T09:14:09Z</time>
      </trkpt>
      <trkpt lat="47.2461" lon="6.02347">
        <ele>284.7</ele>
        <time>2018-02-07T09:14:14Z</time>
      </trkpt>
      <trkpt lat="47.24613" lon="6.02341">
        <ele>284.5</ele>
        <time>2018-02-07T09:14:19Z</time>
      </trkpt>
      <trkpt lat="47.24615" lon="6.02336">
        <ele>285</ele>
        <time>2018-02-07T09:14:24Z</time>
      </trkpt>
      <trkpt lat="47.24618" lon="6.02331">
        <ele>284.8</ele>
        <time>2018-02-07T09:14:29Z</time>
      </trkpt>
      <trkpt lat="47.24621" lon="6.02327">
        <ele>284.7</ele>
        <time>2018-02-07T09:14:34Z</time>
      </trkpt>
      <trkpt lat="47.24624" lon="6.02322">
        <ele>284.6</ele>
        <time>2018-02-07T09:14:39Z</time>
      </trkpt>
      <trkpt lat="47.24625" lon="6.02316">
        <ele>284.3</ele>
        <time>2018-02-07T09:14:44Z</time>
      </trkpt>
      <trkpt lat="47.24628" lon="6.02311">
        <ele>284.1</ele>
        <time>2018-02-07T09:14:49Z</time>
      </trkpt>
      <trkpt lat="47.2463" lon="6.02304">
        <ele>284.5</ele>
        <time>2018-02-07T09:14:54Z</time>
      </trkpt>
      <trkpt lat="47.24633" lon="6.02299">
        <ele>283.6</ele>
        <time>2018-02-07T09:14:59Z</time>
      </trkpt>
      <trkpt lat="47.24634" lon="6.02293">
        <ele>285.4</ele>
        <time>2018-02-07T09:15:04Z</time>
      </trkpt>
      <trkpt lat="47.24634" lon="6.02287">
        <ele>285.1</ele>
        <time>2018-02-07T09:15:09Z</time>
      </trkpt>
      <trkpt lat="47.24637" lon="6.02282">
        <ele>285</ele>
        <time>2018-02-07T09:15:14Z</time>
      </trkpt>
      <trkpt lat="47.24641" lon="6.02277">
        <ele>285.6</ele>
        <time>2018-02-07T09:15:19Z</time>
      </trkpt>
      <trkpt lat="47.24645" lon="6.02274">
        <ele>284.8</ele>
        <time>2018-02-07T09:15:24Z</time>
      </trkpt>
      <trkpt lat="47.24646" lon="6.02269">
        <ele>282.4</ele>
        <time>2018-02-07T09:15:29Z</time>
      </trkpt>
      <trkpt lat="47.24647" lon="6.02265">
        <ele>282.3</ele>
        <time>2018-02-07T09:15:34Z</time>
      </trkpt>
      <trkpt lat="47.24648" lon="6.02259">
        <ele>282.7</ele>
        <time>2018-02-07T09:15:39Z</time>
      </trkpt>
      <trkpt lat="47.24652" lon="6.02256">
        <ele>282.7</ele>
        <time>2018-02-07T09:15:44Z</time>
      </trkpt>
      <trkpt lat="47.24656" lon="6.02253">
        <ele>282.7</ele>
        <time>2018-02-07T09:15:49Z</time>
      </trkpt>
      <trkpt lat="47.24661" lon="6.02251">
        <ele>282.8</ele>
        <time>2018-02-07T09:15:54Z</time>
      </trkpt>
      <trkpt lat="47.24666" lon="6.02253">
        <ele>281.7</ele>
        <time>2018-02-07T09:15:59Z</time>
      </trkpt>
      <trkpt lat="47.24671" lon="6.02252">
        <ele>281.8</ele>
        <time>2018-02-07T09:16:04Z</time>
      </trkpt>
      <trkpt lat="47.24676" lon="6.0225">
        <ele>281.2</ele>
        <time>2018-02-07T09:16:09Z</time>
      </trkpt>
      <trkpt lat="47.24681" lon="6.02247">
        <ele>281.2</ele>
        <time>2018-02-07T09:16:14Z</time>
      </trkpt>
      <trkpt lat="47.24687" lon="6.02245">
        <ele>281.3</ele>
        <time>2018-02-07T09:16:19Z</time>
      </trkpt>
      <trkpt lat="47.24692" lon="6.02241">
        <ele>281.3</ele>
        <time>2018-02-07T09:16:24Z</time>
      </trkpt>
      <trkpt lat="47.24697" lon="6.02239">
        <ele>281.4</ele>
        <time>2018-02-07T09:16:29Z</time>
      </trkpt>
      <trkpt lat="47.247" lon="6.02238">
        <ele>280.8</ele>
        <time>2018-02-07T09:16:34Z</time>
      </trkpt>
      <trkpt lat="47.24702" lon="6.02238">
        <ele>280.9</ele>
        <time>2018-02-07T09:16:39Z</time>
      </trkpt>
      <trkpt lat="47.24698" lon="6.02239">
        <ele>280.7</ele>
        <time>2018-02-07T09:16:44Z</time>
      </trkpt>
      <trkpt lat="47.24695" lon="6.02234">
        <ele>280.3</ele>
        <time>2018-02-07T09:16:49Z</time>
      </trkpt>
      <trkpt lat="47.24683" lon="6.02209">
        <ele>274.2</ele>
        <time>2018-02-07T09:17:39Z</time>
      </trkpt>
      <trkpt lat="47.2469" lon="6.02207">
        <ele>275.1</ele>
        <time>2018-02-07T09:17:45Z</time>
      </trkpt>
      <trkpt lat="47.24709" lon="6.02192">
        <ele>271.5</ele>
        <time>2018-02-07T09:17:50Z</time>
      </trkpt>
      <trkpt lat="47.24736" lon="6.02187">
        <ele>270.9</ele>
        <time>2018-02-07T09:18:07Z</time>
      </trkpt>
      <trkpt lat="47.24767" lon="6.02156">
        <ele>276.7</ele>
        <time>2018-02-07T09:18:12Z</time>
      </trkpt>
      <trkpt lat="47.24775" lon="6.02153">
        <ele>279</ele>
        <time>2018-02-07T09:18:17Z</time>
      </trkpt>
      <trkpt lat="47.24777" lon="6.02138">
        <ele>286.1</ele>
        <time>2018-02-07T09:18:22Z</time>
      </trkpt>
      <trkpt lat="47.24782" lon="6.02138">
        <ele>284.9</ele>
        <time>2018-02-07T09:18:27Z</time>
      </trkpt>
      <trkpt lat="47.24784" lon="6.02137">
        <ele>283.5</ele>
        <time>2018-02-07T09:18:32Z</time>
      </trkpt>
      <trkpt lat="47.24786" lon="6.02136">
        <ele>281.4</ele>
        <time>2018-02-07T09:18:37Z</time>
      </trkpt>
      <trkpt lat="47.24787" lon="6.02134">
        <ele>281.3</ele>
        <time>2018-02-07T09:18:42Z</time>
      </trkpt>
      <trkpt lat="47.24791" lon="6.0213">
        <ele>281.2</ele>
        <time>2018-02-07T09:18:47Z</time>
      </trkpt>
      <trkpt lat="47.24793" lon="6.02129">
        <ele>282</ele>
        <time>2018-02-07T09:18:52Z</time>
      </trkpt>
      <trkpt lat="47.24796" lon="6.02128">
        <ele>283.4</ele>
        <time>2018-02-07T09:18:57Z</time>
      </trkpt>
      <trkpt lat="47.24799" lon="6.02127">
        <ele>284.2</ele>
        <time>2018-02-07T09:19:02Z</time>
      </trkpt>
      <trkpt lat="47.24802" lon="6.02125">
        <ele>283.5</ele>
        <time>2018-02-07T09:19:07Z</time>
      </trkpt>
      <trkpt lat="47.24805" lon="6.02123">
        <ele>285</ele>
        <time>2018-02-07T09:19:12Z</time>
      </trkpt>
      <trkpt lat="47.24806" lon="6.02121">
        <ele>286.3</ele>
        <time>2018-02-07T09:19:17Z</time>
      </trkpt>
      <trkpt lat="47.24809" lon="6.02118">
        <ele>287.7</ele>
        <time>2018-02-07T09:19:22Z</time>
      </trkpt>
      <trkpt lat="47.24811" lon="6.02116">
        <ele>289.1</ele>
        <time>2018-02-07T09:19:27Z</time>
      </trkpt>
      <trkpt lat="47.24814" lon="6.02113">
        <ele>290.4</ele>
        <time>2018-02-07T09:19:32Z</time>
      </trkpt>
      <trkpt lat="47.24816" lon="6.02112">
        <ele>292.6</ele>
        <time>2018-02-07T09:19:37Z</time>
      </trkpt>
      <trkpt lat="47.24819" lon="6.0211">
        <ele>292.6</ele>
        <time>2018-02-07T09:19:42Z</time>
      </trkpt>
      <trkpt lat="47.24819" lon="6.0211">
        <ele>293.3</ele>
        <time>2018-02-07T09:19:47Z</time>
      </trkpt>
      <trkpt lat="47.24821" lon="6.0211">
        <ele>293.3</ele>
        <time>2018-02-07T09:19:52Z</time>
      </trkpt>
      <trkpt lat="47.24821" lon="6.0211">
        <ele>294.1</ele>
        <time>2018-02-07T09:19:58Z</time>
      </trkpt>
      <trkpt lat="47.24821" lon="6.02107">
        <ele>294.6</ele>
        <time>2018-02-07T09:20:03Z</time>
      </trkpt>
      <trkpt lat="47.24821" lon="6.02107">
        <ele>294.6</ele>
        <time>2018-02-07T09:20:08Z</time>
      </trkpt>
      <trkpt lat="47.24821" lon="6.02107">
        <ele>293.2</ele>
        <time>2018-02-07T09:20:13Z</time>
      </trkpt>
      <trkpt lat="47.24821" lon="6.02107">
        <ele>293.2</ele>
        <time>2018-02-07T09:20:18Z</time>
      </trkpt>
      <trkpt lat="47.24821" lon="6.02107">
        <ele>293.2</ele>
        <time>2018-02-07T09:20:23Z</time>
      </trkpt>
      <trkpt lat="47.24821" lon="6.02107">
        <ele>293.2</ele>
        <time>2018-02-07T09:20:29Z</time>
      </trkpt>
      <trkpt lat="47.2482" lon="6.02107">
        <ele>292.5</ele>
        <time>2018-02-07T09:20:34Z</time>
      </trkpt>
      <trkpt lat="47.24823" lon="6.02105">
        <ele>293.2</ele>
        <time>2018-02-07T09:20:39Z</time>
      </trkpt>
      <trkpt lat="47.24827" lon="6.02103">
        <ele>293.2</ele>
        <time>2018-02-07T09:20:44Z</time>
      </trkpt>
      <trkpt lat="47.24831" lon="6.021">
        <ele>294.7</ele>
        <time>2018-02-07T09:20:49Z</time>
      </trkpt>
      <trkpt lat="47.24832" lon="6.02099">
        <ele>295.3</ele>
        <time>2018-02-07T09:20:54Z</time>
      </trkpt>
      <trkpt lat="47.24832" lon="6.02099">
        <ele>295.3</ele>
        <time>2018-02-07T09:20:59Z</time>
      </trkpt>
      <trkpt lat="47.24832" lon="6.02099">
        <ele>295.3</ele>
        <time>2018-02-07T09:21:04Z</time>
      </trkpt>
      <trkpt lat="47.24834" lon="6.02098">
        <ele>296</ele>
        <time>2018-02-07T09:21:09Z</time>
      </trkpt>
      <trkpt lat="47.24838" lon="6.02093">
        <ele>298.1</ele>
        <time>2018-02-07T09:21:14Z</time>
      </trkpt>
      <trkpt lat="47.24841" lon="6.02088">
        <ele>297.9</ele>
        <time>2018-02-07T09:21:19Z</time>
      </trkpt>
      <trkpt lat="47.24841" lon="6.02081">
        <ele>296.8</ele>
        <time>2018-02-07T09:21:24Z</time>
      </trkpt>
      <trkpt lat="47.24843" lon="6.02075">
        <ele>296.5</ele>
        <time>2018-02-07T09:21:29Z</time>
      </trkpt>
      <trkpt lat="47.24845" lon="6.02068">
        <ele>301.9</ele>
        <time>2018-02-07T09:21:34Z</time>
      </trkpt>
      <trkpt lat="47.24849" lon="6.02064">
        <ele>302.6</ele>
        <time>2018-02-07T09:21:39Z</time>
      </trkpt>
      <trkpt lat="47.24851" lon="6.02061">
        <ele>303.9</ele>
        <time>2018-02-07T09:21:44Z</time>
      </trkpt>
      <trkpt lat="47.24855" lon="6.02055">
        <ele>308</ele>
        <time>2018-02-07T09:21:49Z</time>
      </trkpt>
      <trkpt lat="47.24859" lon="6.02053">
        <ele>309.4</ele>
        <time>2018-02-07T09:21:54Z</time>
      </trkpt>
      <trkpt lat="47.24864" lon="6.02049">
        <ele>310.9</ele>
        <time>2018-02-07T09:21:59Z</time>
      </trkpt>
      <trkpt lat="47.2487" lon="6.02047">
        <ele>311.7</ele>
        <time>2018-02-07T09:22:04Z</time>
      </trkpt>
      <trkpt lat="47.24876" lon="6.02044">
        <ele>313.1</ele>
        <time>2018-02-07T09:22:09Z</time>
      </trkpt>
      <trkpt lat="47.2488" lon="6.0204">
        <ele>313.8</ele>
        <time>2018-02-07T09:22:14Z</time>
      </trkpt>
      <trkpt lat="47.24885" lon="6.02038">
        <ele>315.3</ele>
        <time>2018-02-07T09:22:19Z</time>
      </trkpt>
      <trkpt lat="47.2489" lon="6.02036">
        <ele>317.5</ele>
        <time>2018-02-07T09:22:24Z</time>
      </trkpt>
      <trkpt lat="47.24894" lon="6.02032">
        <ele>317.5</ele>
        <time>2018-02-07T09:22:29Z</time>
      </trkpt>
      <trkpt lat="47.24897" lon="6.02027">
        <ele>318.1</ele>
        <time>2018-02-07T09:22:34Z</time>
      </trkpt>
      <trkpt lat="47.24898" lon="6.02021">
        <ele>317</ele>
        <time>2018-02-07T09:22:39Z</time>
      </trkpt>
      <trkpt lat="47.249" lon="6.02016">
        <ele>315.4</ele>
        <time>2018-02-07T09:22:44Z</time>
      </trkpt>
      <trkpt lat="47.24904" lon="6.02012">
        <ele>314.7</ele>
        <time>2018-02-07T09:22:49Z</time>
      </trkpt>
      <trkpt lat="47.24909" lon="6.0201">
        <ele>315.4</ele>
        <time>2018-02-07T09:22:54Z</time>
      </trkpt>
      <trkpt lat="47.24912" lon="6.02009">
        <ele>314.8</ele>
        <time>2018-02-07T09:22:59Z</time>
      </trkpt>
      <trkpt lat="47.24912" lon="6.02009">
        <ele>314.8</ele>
        <time>2018-02-07T09:23:04Z</time>
      </trkpt>
      <trkpt lat="47.24913" lon="6.02009">
        <ele>315.6</ele>
        <time>2018-02-07T09:23:09Z</time>
      </trkpt>
      <trkpt lat="47.24913" lon="6.02009">
        <ele>315.6</ele>
        <time>2018-02-07T09:23:14Z</time>
      </trkpt>
      <trkpt lat="47.24913" lon="6.02009">
        <ele>315.6</ele>
        <time>2018-02-07T09:23:19Z</time>
      </trkpt>
      <trkpt lat="47.24914" lon="6.02008">
        <ele>315.5</ele>
        <time>2018-02-07T09:23:24Z</time>
      </trkpt>
      <trkpt lat="47.24917" lon="6.02005">
        <ele>315.4</ele>
        <time>2018-02-07T09:23:29Z</time>
      </trkpt>
      <trkpt lat="47.2492" lon="6.02002">
        <ele>315.4</ele>
        <time>2018-02-07T09:23:34Z</time>
      </trkpt>
      <trkpt lat="47.24922" lon="6.01999">
        <ele>313.9</ele>
        <time>2018-02-07T09:23:39Z</time>
      </trkpt>
      <trkpt lat="47.24928" lon="6.01997">
        <ele>314</ele>
        <time>2018-02-07T09:23:44Z</time>
      </trkpt>
      <trkpt lat="47.24931" lon="6.0199">
        <ele>314.5</ele>
        <time>2018-02-07T09:23:49Z</time>
      </trkpt>
      <trkpt lat="47.24935" lon="6.01985">
        <ele>315.8</ele>
        <time>2018-02-07T09:23:54Z</time>
      </trkpt>
      <trkpt lat="47.2494" lon="6.01983">
        <ele>315.2</ele>
        <time>2018-02-07T09:23:59Z</time>
      </trkpt>
      <trkpt lat="47.24944" lon="6.01978">
        <ele>315.1</ele>
        <time>2018-02-07T09:24:04Z</time>
      </trkpt>
      <trkpt lat="47.24947" lon="6.01975">
        <ele>315.7</ele>
        <time>2018-02-07T09:24:09Z</time>
      </trkpt>
      <trkpt lat="47.24951" lon="6.0197">
        <ele>315.6</ele>
        <time>2018-02-07T09:24:14Z</time>
      </trkpt>
      <trkpt lat="47.24955" lon="6.01965">
        <ele>315.5</ele>
        <time>2018-02-07T09:24:19Z</time>
      </trkpt>
      <trkpt lat="47.24961" lon="6.01959">
        <ele>318.2</ele>
        <time>2018-02-07T09:24:24Z</time>
      </trkpt>
      <trkpt lat="47.24964" lon="6.01955">
        <ele>318.8</ele>
        <time>2018-02-07T09:24:29Z</time>
      </trkpt>
      <trkpt lat="47.24968" lon="6.01952">
        <ele>317.4</ele>
        <time>2018-02-07T09:24:34Z</time>
      </trkpt>
      <trkpt lat="47.24972" lon="6.0195">
        <ele>314.6</ele>
        <time>2018-02-07T09:24:39Z</time>
      </trkpt>
      <trkpt lat="47.24977" lon="6.01948">
        <ele>313.3</ele>
        <time>2018-02-07T09:24:44Z</time>
      </trkpt>
      <trkpt lat="47.24981" lon="6.01944">
        <ele>313.2</ele>
        <time>2018-02-07T09:24:49Z</time>
      </trkpt>
      <trkpt lat="47.24986" lon="6.01941">
        <ele>312.5</ele>
        <time>2018-02-07T09:24:54Z</time>
      </trkpt>
      <trkpt lat="47.2499" lon="6.01937">
        <ele>312.5</ele>
        <time>2018-02-07T09:24:59Z</time>
      </trkpt>
      <trkpt lat="47.24994" lon="6.01933">
        <ele>312.4</ele>
        <time>2018-02-07T09:25:04Z</time>
      </trkpt>
      <trkpt lat="47.24998" lon="6.01929">
        <ele>312.4</ele>
        <time>2018-02-07T09:25:09Z</time>
      </trkpt>
      <trkpt lat="47.25002" lon="6.01927">
        <ele>311.7</ele>
        <time>2018-02-07T09:25:14Z</time>
      </trkpt>
      <trkpt lat="47.25007" lon="6.01923">
        <ele>311.7</ele>
        <time>2018-02-07T09:25:19Z</time>
      </trkpt>
      <trkpt lat="47.2501" lon="6.01918">
        <ele>312.3</ele>
        <time>2018-02-07T09:25:24Z</time>
      </trkpt>
      <trkpt lat="47.25015" lon="6.01915">
        <ele>313</ele>
        <time>2018-02-07T09:25:29Z</time>
      </trkpt>
      <trkpt lat="47.25018" lon="6.0191">
        <ele>313.5</ele>
        <time>2018-02-07T09:25:34Z</time>
      </trkpt>
      <trkpt lat="47.25021" lon="6.01906">
        <ele>313.4</ele>
        <time>2018-02-07T09:25:39Z</time>
      </trkpt>
      <trkpt lat="47.25025" lon="6.019">
        <ele>312.5</ele>
        <time>2018-02-07T09:25:44Z</time>
      </trkpt>
      <trkpt lat="47.25026" lon="6.01892">
        <ele>312.8</ele>
        <time>2018-02-07T09:25:49Z</time>
      </trkpt>
      <trkpt lat="47.25029" lon="6.01887">
        <ele>312</ele>
        <time>2018-02-07T09:25:54Z</time>
      </trkpt>
      <trkpt lat="47.25035" lon="6.01885">
        <ele>313.5</ele>
        <time>2018-02-07T09:25:59Z</time>
      </trkpt>
      <trkpt lat="47.25039" lon="6.0188">
        <ele>314.8</ele>
        <time>2018-02-07T09:26:04Z</time>
      </trkpt>
      <trkpt lat="47.25043" lon="6.01877">
        <ele>314.1</ele>
        <time>2018-02-07T09:26:09Z</time>
      </trkpt>
      <trkpt lat="47.25047" lon="6.01873">
        <ele>314</ele>
        <time>2018-02-07T09:26:14Z</time>
      </trkpt>
      <trkpt lat="47.2505" lon="6.01868">
        <ele>314.6</ele>
        <time>2018-02-07T09:26:19Z</time>
      </trkpt>
      <trkpt lat="47.25055" lon="6.01863">
        <ele>316.6</ele>
        <time>2018-02-07T09:26:24Z</time>
      </trkpt>
      <trkpt lat="47.25058" lon="6.01858">
        <ele>317.2</ele>
        <time>2018-02-07T09:26:29Z</time>
      </trkpt>
      <trkpt lat="47.25061" lon="6.01853">
        <ele>317</ele>
        <time>2018-02-07T09:26:34Z</time>
      </trkpt>
      <trkpt lat="47.25064" lon="6.01848">
        <ele>318.3</ele>
        <time>2018-02-07T09:26:39Z</time>
      </trkpt>
      <trkpt lat="47.25067" lon="6.01845">
        <ele>318.9</ele>
        <time>2018-02-07T09:26:44Z</time>
      </trkpt>
      <trkpt lat="47.25069" lon="6.01842">
        <ele>320.3</ele>
        <time>2018-02-07T09:26:49Z</time>
      </trkpt>
      <trkpt lat="47.25072" lon="6.01841">
        <ele>321</ele>
        <time>2018-02-07T09:26:54Z</time>
      </trkpt>
      <trkpt lat="47.25078" lon="6.01838">
        <ele>319.7</ele>
        <time>2018-02-07T09:26:59Z</time>
      </trkpt>
      <trkpt lat="47.25081" lon="6.01834">
        <ele>319.6</ele>
        <time>2018-02-07T09:27:04Z</time>
      </trkpt>
      <trkpt lat="47.25085" lon="6.01828">
        <ele>320.1</ele>
        <time>2018-02-07T09:27:09Z</time>
      </trkpt>
      <trkpt lat="47.25088" lon="6.01821">
        <ele>322</ele>
        <time>2018-02-07T09:27:14Z</time>
      </trkpt>
      <trkpt lat="47.25092" lon="6.01815">
        <ele>322.5</ele>
        <time>2018-02-07T09:27:19Z</time>
      </trkpt>
      <trkpt lat="47.25095" lon="6.0181">
        <ele>324.5</ele>
        <time>2018-02-07T09:27:24Z</time>
      </trkpt>
      <trkpt lat="47.25099" lon="6.01806">
        <ele>325.9</ele>
        <time>2018-02-07T09:27:29Z</time>
      </trkpt>
      <trkpt lat="47.25103" lon="6.01802">
        <ele>325.8</ele>
        <time>2018-02-07T09:27:34Z</time>
      </trkpt>
      <trkpt lat="47.25107" lon="6.01798">
        <ele>327.1</ele>
        <time>2018-02-07T09:27:39Z</time>
      </trkpt>
      <trkpt lat="47.25112" lon="6.01796">
        <ele>326.5</ele>
        <time>2018-02-07T09:27:44Z</time>
      </trkpt>
      <trkpt lat="47.25116" lon="6.01794">
        <ele>325.9</ele>
        <time>2018-02-07T09:27:49Z</time>
      </trkpt>
      <trkpt lat="47.25122" lon="6.01791">
        <ele>324.5</ele>
        <time>2018-02-07T09:27:54Z</time>
      </trkpt>
      <trkpt lat="47.25126" lon="6.01788">
        <ele>323.1</ele>
        <time>2018-02-07T09:27:59Z</time>
      </trkpt>
      <trkpt lat="47.25129" lon="6.01785">
        <ele>324.5</ele>
        <time>2018-02-07T09:28:04Z</time>
      </trkpt>
      <trkpt lat="47.25133" lon="6.0178">
        <ele>325</ele>
        <time>2018-02-07T09:28:09Z</time>
      </trkpt>
      <trkpt lat="47.25135" lon="6.01775">
        <ele>327</ele>
        <time>2018-02-07T09:28:14Z</time>
      </trkpt>
      <trkpt lat="47.25139" lon="6.01771">
        <ele>326.9</ele>
        <time>2018-02-07T09:28:19Z</time>
      </trkpt>
      <trkpt lat="47.25142" lon="6.01766">
        <ele>326.8</ele>
        <time>2018-02-07T09:28:24Z</time>
      </trkpt>
      <trkpt lat="47.25145" lon="6.01762">
        <ele>327.4</ele>
        <time>2018-02-07T09:28:29Z</time>
      </trkpt>
      <trkpt lat="47.25147" lon="6.01759">
        <ele>324.4</ele>
        <time>2018-02-07T09:28:34Z</time>
      </trkpt>
      <trkpt lat="47.25148" lon="6.01758">
        <ele>320.2</ele>
        <time>2018-02-07T09:28:39Z</time>
      </trkpt>
      <trkpt lat="47.25153" lon="6.01756">
        <ele>319.5</ele>
        <time>2018-02-07T09:28:44Z</time>
      </trkpt>
      <trkpt lat="47.25157" lon="6.01751">
        <ele>320.8</ele>
        <time>2018-02-07T09:28:49Z</time>
      </trkpt>
      <trkpt lat="47.2516" lon="6.01747">
        <ele>321.5</ele>
        <time>2018-02-07T09:28:54Z</time>
      </trkpt>
      <trkpt lat="47.25164" lon="6.01742">
        <ele>324.2</ele>
        <time>2018-02-07T09:28:59Z</time>
      </trkpt>
      <trkpt lat="47.25169" lon="6.01736">
        <ele>326.2</ele>
        <time>2018-02-07T09:29:04Z</time>
      </trkpt>
      <trkpt lat="47.25174" lon="6.01731">
        <ele>328.2</ele>
        <time>2018-02-07T09:29:09Z</time>
      </trkpt>
      <trkpt lat="47.25177" lon="6.01726">
        <ele>330.2</ele>
        <time>2018-02-07T09:29:14Z</time>
      </trkpt>
      <trkpt lat="47.25181" lon="6.01721">
        <ele>330.1</ele>
        <time>2018-02-07T09:29:19Z</time>
      </trkpt>
      <trkpt lat="47.25184" lon="6.01717">
        <ele>330</ele>
        <time>2018-02-07T09:29:24Z</time>
      </trkpt>
      <trkpt lat="47.25188" lon="6.01711">
        <ele>329.8</ele>
        <time>2018-02-07T09:29:29Z</time>
      </trkpt>
      <trkpt lat="47.25192" lon="6.01708">
        <ele>331.2</ele>
        <time>2018-02-07T09:29:34Z</time>
      </trkpt>
      <trkpt lat="47.25197" lon="6.01706">
        <ele>329.9</ele>
        <time>2018-02-07T09:29:39Z</time>
      </trkpt>
      <trkpt lat="47.25202" lon="6.01708">
        <ele>324.5</ele>
        <time>2018-02-07T09:29:44Z</time>
      </trkpt>
      <trkpt lat="47.25206" lon="6.01708">
        <ele>324</ele>
        <time>2018-02-07T09:29:49Z</time>
      </trkpt>
      <trkpt lat="47.25207" lon="6.01709">
        <ele>323.4</ele>
        <time>2018-02-07T09:29:54Z</time>
      </trkpt>
      <trkpt lat="47.25211" lon="6.01707">
        <ele>322.7</ele>
        <time>2018-02-07T09:29:59Z</time>
      </trkpt>
      <trkpt lat="47.25215" lon="6.01702">
        <ele>322.5</ele>
        <time>2018-02-07T09:30:04Z</time>
      </trkpt>
      <trkpt lat="47.25218" lon="6.01699">
        <ele>323.3</ele>
        <time>2018-02-07T09:30:09Z</time>
      </trkpt>
      <trkpt lat="47.25219" lon="6.01698">
        <ele>323.2</ele>
        <time>2018-02-07T09:30:14Z</time>
      </trkpt>
      <trkpt lat="47.25222" lon="6.01694">
        <ele>324.6</ele>
        <time>2018-02-07T09:30:20Z</time>
      </trkpt>
      <trkpt lat="47.25227" lon="6.01691">
        <ele>325.3</ele>
        <time>2018-02-07T09:30:25Z</time>
      </trkpt>
      <trkpt lat="47.2523" lon="6.01687">
        <ele>325.9</ele>
        <time>2018-02-07T09:30:30Z</time>
      </trkpt>
      <trkpt lat="47.25233" lon="6.01683">
        <ele>326.5</ele>
        <time>2018-02-07T09:30:35Z</time>
      </trkpt>
      <trkpt lat="47.25236" lon="6.01681">
        <ele>327.2</ele>
        <time>2018-02-07T09:30:40Z</time>
      </trkpt>
      <trkpt lat="47.25239" lon="6.01679">
        <ele>327.2</ele>
        <time>2018-02-07T09:30:45Z</time>
      </trkpt>
      <trkpt lat="47.25242" lon="6.01672">
        <ele>327.7</ele>
        <time>2018-02-07T09:30:50Z</time>
      </trkpt>
      <trkpt lat="47.25241" lon="6.0167">
        <ele>321.8</ele>
        <time>2018-02-07T09:30:55Z</time>
      </trkpt>
      <trkpt lat="47.25242" lon="6.01666">
        <ele>319.5</ele>
        <time>2018-02-07T09:31:00Z</time>
      </trkpt>
      <trkpt lat="47.25244" lon="6.01664">
        <ele>318.8</ele>
        <time>2018-02-07T09:31:05Z</time>
      </trkpt>
      <trkpt lat="47.25246" lon="6.01662">
        <ele>318.7</ele>
        <time>2018-02-07T09:31:10Z</time>
      </trkpt>
      <trkpt lat="47.25253" lon="6.01661">
        <ele>319</ele>
        <time>2018-02-07T09:31:15Z</time>
      </trkpt>
      <trkpt lat="47.25262" lon="6.0166">
        <ele>319.2</ele>
        <time>2018-02-07T09:31:20Z</time>
      </trkpt>
      <trkpt lat="47.25268" lon="6.01656">
        <ele>320.7</ele>
        <time>2018-02-07T09:31:25Z</time>
      </trkpt>
      <trkpt lat="47.2527" lon="6.01655">
        <ele>322.1</ele>
        <time>2018-02-07T09:31:30Z</time>
      </trkpt>
      <trkpt lat="47.25273" lon="6.01652">
        <ele>322.8</ele>
        <time>2018-02-07T09:31:35Z</time>
      </trkpt>
      <trkpt lat="47.2528" lon="6.01648">
        <ele>325</ele>
        <time>2018-02-07T09:31:40Z</time>
      </trkpt>
      <trkpt lat="47.25283" lon="6.01645">
        <ele>326.4</ele>
        <time>2018-02-07T09:31:45Z</time>
      </trkpt>
      <trkpt lat="47.25289" lon="6.01643">
        <ele>329.4</ele>
        <time>2018-02-07T09:31:50Z</time>
      </trkpt>
      <trkpt lat="47.25296" lon="6.01639">
        <ele>328.7</ele>
        <time>2018-02-07T09:31:55Z</time>
      </trkpt>
      <trkpt lat="47.253" lon="6.0163">
        <ele>322.7</ele>
        <time>2018-02-07T09:32:00Z</time>
      </trkpt>
      <trkpt lat="47.25303" lon="6.01624">
        <ele>320.4</ele>
        <time>2018-02-07T09:32:05Z</time>
      </trkpt>
      <trkpt lat="47.25305" lon="6.01621">
        <ele>318.8</ele>
        <time>2018-02-07T09:32:10Z</time>
      </trkpt>
      <trkpt lat="47.25309" lon="6.01615">
        <ele>317.2</ele>
        <time>2018-02-07T09:32:15Z</time>
      </trkpt>
      <trkpt lat="47.25312" lon="6.0161">
        <ele>317.8</ele>
        <time>2018-02-07T09:32:20Z</time>
      </trkpt>
      <trkpt lat="47.25316" lon="6.01607">
        <ele>317.1</ele>
        <time>2018-02-07T09:32:25Z</time>
      </trkpt>
      <trkpt lat="47.2532" lon="6.01604">
        <ele>315.6</ele>
        <time>2018-02-07T09:32:30Z</time>
      </trkpt>
      <trkpt lat="47.25324" lon="6.01599">
        <ele>318.3</ele>
        <time>2018-02-07T09:32:35Z</time>
      </trkpt>
      <trkpt lat="47.25328" lon="6.01594">
        <ele>319</ele>
        <time>2018-02-07T09:32:40Z</time>
      </trkpt>
      <trkpt lat="47.25333" lon="6.01591">
        <ele>319.7</ele>
        <time>2018-02-07T09:32:45Z</time>
      </trkpt>
      <trkpt lat="47.25337" lon="6.01587">
        <ele>321</ele>
        <time>2018-02-07T09:32:50Z</time>
      </trkpt>
      <trkpt lat="47.25337" lon="6.01579">
        <ele>318.5</ele>
        <time>2018-02-07T09:32:55Z</time>
      </trkpt>
      <trkpt lat="47.25333" lon="6.01573">
        <ele>318</ele>
        <time>2018-02-07T09:33:00Z</time>
      </trkpt>
      <trkpt lat="47.25328" lon="6.01568">
        <ele>317.5</ele>
        <time>2018-02-07T09:33:05Z</time>
      </trkpt>
      <trkpt lat="47.25324" lon="6.01565">
        <ele>314.3</ele>
        <time>2018-02-07T09:33:10Z</time>
      </trkpt>
      <trkpt lat="47.2532" lon="6.01563">
        <ele>314.8</ele>
        <time>2018-02-07T09:33:15Z</time>
      </trkpt>
      <trkpt lat="47.25317" lon="6.01561">
        <ele>313.9</ele>
        <time>2018-02-07T09:33:20Z</time>
      </trkpt>
      <trkpt lat="47.25314" lon="6.0156">
        <ele>312.9</ele>
        <time>2018-02-07T09:33:25Z</time>
      </trkpt>
      <trkpt lat="47.25311" lon="6.01558">
        <ele>314.1</ele>
        <time>2018-02-07T09:33:30Z</time>
      </trkpt>
      <trkpt lat="47.25307" lon="6.01555">
        <ele>315.9</ele>
        <time>2018-02-07T09:33:35Z</time>
      </trkpt>
      <trkpt lat="47.25304" lon="6.01553">
        <ele>317.1</ele>
        <time>2018-02-07T09:33:40Z</time>
      </trkpt>
      <trkpt lat="47.253" lon="6.01551">
        <ele>318.2</ele>
        <time>2018-02-07T09:33:45Z</time>
      </trkpt>
      <trkpt lat="47.25297" lon="6.01549">
        <ele>318.7</ele>
        <time>2018-02-07T09:33:50Z</time>
      </trkpt>
      <trkpt lat="47.25294" lon="6.01549">
        <ele>318.6</ele>
        <time>2018-02-07T09:33:55Z</time>
      </trkpt>
      <trkpt lat="47.25291" lon="6.01547">
        <ele>319.1</ele>
        <time>2018-02-07T09:34:00Z</time>
      </trkpt>
      <trkpt lat="47.2529" lon="6.01547">
        <ele>319.8</ele>
        <time>2018-02-07T09:34:05Z</time>
      </trkpt>
      <trkpt lat="47.25289" lon="6.01547">
        <ele>319.7</ele>
        <time>2018-02-07T09:34:10Z</time>
      </trkpt>
      <trkpt lat="47.25289" lon="6.01546">
        <ele>319.6</ele>
        <time>2018-02-07T09:34:15Z</time>
      </trkpt>
      <trkpt lat="47.25289" lon="6.01544">
        <ele>318.8</ele>
        <time>2018-02-07T09:34:20Z</time>
      </trkpt>
      <trkpt lat="47.25287" lon="6.01543">
        <ele>318</ele>
        <time>2018-02-07T09:34:25Z</time>
      </trkpt>
    </trkseg>
  </trk>
</gpx>